<?xml version="1.0" encoding="UTF-8" standalone="no" ?>
<gpx xmlns="http://www.topografix.com/GPX/1/1" xmlns:xsi="http://www.w3.org/2001/XMLSchema-instance" xsi:schemaLocation="http://www.topografix.com/GPX/1/1 http://www.topografix.com/GPX/1/1/gpx.xsd" version="1.1" creator="VisuGPX - https://www.visugpx.com">
  <metadata>
    <name>boucle Nord</name>
  </metadata>
  <trk>
    <name><![CDATA[boucle Nord]]></name>
    <trkseg>
      <trkpt lat="42.97343" lon="2.40732">
        <ele>645.5</ele>
        <time>2018-06-25T11:36:33Z</time>
      </trkpt>
      <trkpt lat="42.9782" lon="2.4039">
        <ele>697.5</ele>
        <time>2018-06-25T11:36:33Z</time>
      </trkpt>
      <trkpt lat="42.98154" lon="2.41173">
        <ele>715.9</ele>
        <time>2018-06-25T11:36:33Z</time>
      </trkpt>
      <trkpt lat="42.98154" lon="2.41173">
        <ele>715.9</ele>
        <time>2018-06-25T11:36:33Z</time>
      </trkpt>
      <trkpt lat="42.9816" lon="2.4149">
        <ele>715.1</ele>
        <time>2018-06-25T11:36:33Z</time>
      </trkpt>
      <trkpt lat="42.98333" lon="2.41423">
        <ele>743.2</ele>
        <time>2018-06-25T11:36:33Z</time>
      </trkpt>
      <trkpt lat="42.98284" lon="2.41896">
        <ele>695.8</ele>
        <time>2018-06-25T11:36:33Z</time>
      </trkpt>
      <trkpt lat="42.98284" lon="2.41896">
        <ele>695.8</ele>
        <time>2018-06-25T11:36:33Z</time>
      </trkpt>
      <trkpt lat="42.9838" lon="2.4184">
        <ele>704.5</ele>
      </trkpt>
      <trkpt lat="42.98512" lon="2.41834">
        <ele>723.1</ele>
        <time>2018-06-25T11:36:33Z</time>
      </trkpt>
      <trkpt lat="42.98618" lon="2.42251">
        <ele>679.4</ele>
        <time>2018-06-25T11:36:33Z</time>
      </trkpt>
      <trkpt lat="42.98618" lon="2.42251">
        <ele>679.4</ele>
        <time>2018-06-25T11:36:33Z</time>
      </trkpt>
      <trkpt lat="42.98567" lon="2.42342">
        <ele>673.6</ele>
        <time>2018-06-25T11:36:33Z</time>
      </trkpt>
      <trkpt lat="42.98514" lon="2.42667">
        <ele>685</ele>
        <time>2018-06-25T11:36:33Z</time>
      </trkpt>
      <trkpt lat="42.98514" lon="2.42667">
        <ele>685</ele>
        <time>2018-06-25T11:36:33Z</time>
      </trkpt>
      <trkpt lat="42.9852" lon="2.42872">
        <ele>689.4</ele>
        <time>2018-06-25T11:36:33Z</time>
      </trkpt>
      <trkpt lat="42.98618" lon="2.4296">
        <ele>697.7</ele>
        <time>2018-06-25T11:36:33Z</time>
      </trkpt>
      <trkpt lat="42.98655" lon="2.43291">
        <ele>689.7</ele>
        <time>2018-06-25T11:36:33Z</time>
      </trkpt>
      <trkpt lat="42.98655" lon="2.43291">
        <ele>689.7</ele>
        <time>2018-06-25T11:36:33Z</time>
      </trkpt>
      <trkpt lat="42.98592" lon="2.43207">
        <ele>672.4</ele>
        <time>2018-06-25T11:36:33Z</time>
      </trkpt>
      <trkpt lat="42.98486" lon="2.43347">
        <ele>674</ele>
        <time>2018-06-25T11:36:33Z</time>
      </trkpt>
      <trkpt lat="42.98482" lon="2.43487">
        <ele>691</ele>
        <time>2018-06-25T11:36:33Z</time>
      </trkpt>
      <trkpt lat="42.98516" lon="2.4367">
        <ele>703.6</ele>
        <time>2018-06-25T11:36:33Z</time>
      </trkpt>
      <trkpt lat="42.98516" lon="2.4367">
        <ele>703.6</ele>
        <time>2018-06-25T11:36:33Z</time>
      </trkpt>
      <trkpt lat="42.98989" lon="2.43495">
        <ele>732.6</ele>
        <time>2018-06-25T11:36:33Z</time>
      </trkpt>
      <trkpt lat="42.98989" lon="2.43495">
        <ele>732.6</ele>
        <time>2018-06-25T11:36:33Z</time>
      </trkpt>
      <trkpt lat="42.99148" lon="2.43499">
        <ele>749.7</ele>
        <time>2018-06-25T11:37:13Z</time>
      </trkpt>
      <trkpt lat="42.99195" lon="2.43405">
        <ele>751.2</ele>
        <time>2018-06-25T11:37:25Z</time>
      </trkpt>
      <trkpt lat="42.99195" lon="2.43405">
        <ele>751.2</ele>
        <time>2018-06-25T11:37:25Z</time>
      </trkpt>
      <trkpt lat="42.99291" lon="2.43388">
        <ele>740.4</ele>
        <time>2018-06-25T11:37:40Z</time>
      </trkpt>
      <trkpt lat="42.99349" lon="2.43322">
        <ele>737</ele>
        <time>2018-06-25T11:37:52Z</time>
      </trkpt>
      <trkpt lat="42.99424" lon="2.43445">
        <ele>726</ele>
        <time>2018-06-25T11:38:12Z</time>
      </trkpt>
      <trkpt lat="42.99424" lon="2.43445">
        <ele>726</ele>
        <time>2018-06-25T11:38:12Z</time>
      </trkpt>
      <trkpt lat="42.99558" lon="2.43474">
        <ele>721.2</ele>
        <time>2018-06-25T11:38:33Z</time>
      </trkpt>
      <trkpt lat="42.99558" lon="2.43474">
        <ele>721.2</ele>
        <time>2018-06-25T11:38:33Z</time>
      </trkpt>
      <trkpt lat="42.99759" lon="2.43396">
        <ele>702.5</ele>
        <time>2018-06-25T11:39:04Z</time>
      </trkpt>
      <trkpt lat="42.99759" lon="2.43396">
        <ele>702.5</ele>
        <time>2018-06-25T11:39:04Z</time>
      </trkpt>
      <trkpt lat="42.99686" lon="2.43493">
        <ele>685.2</ele>
        <time>2018-06-25T11:39:23Z</time>
      </trkpt>
      <trkpt lat="42.99552" lon="2.43556">
        <ele>688</ele>
        <time>2018-06-25T11:39:42Z</time>
      </trkpt>
      <trkpt lat="42.9955" lon="2.43601">
        <ele>679.8</ele>
        <time>2018-06-25T11:39:47Z</time>
      </trkpt>
      <trkpt lat="42.99777" lon="2.43635">
        <ele>669.1</ele>
        <time>2018-06-25T11:40:19Z</time>
      </trkpt>
      <trkpt lat="42.99777" lon="2.43635">
        <ele>669.1</ele>
        <time>2018-06-25T11:40:19Z</time>
      </trkpt>
      <trkpt lat="42.99777" lon="2.43635">
        <ele>669.1</ele>
        <time>2018-06-25T11:40:19Z</time>
      </trkpt>
      <trkpt lat="43" lon="2.4389">
        <ele>661.3</ele>
        <time>2018-06-25T11:41:04Z</time>
      </trkpt>
      <trkpt lat="43" lon="2.4389">
        <ele>661.3</ele>
        <time>2018-06-25T11:41:04Z</time>
      </trkpt>
      <trkpt lat="43.0027" lon="2.43886">
        <ele>647.5</ele>
        <time>2018-06-25T11:41:59Z</time>
      </trkpt>
      <trkpt lat="43.0033" lon="2.43987">
        <ele>663.7</ele>
        <time>2018-06-25T11:42:14Z</time>
      </trkpt>
      <trkpt lat="43.0033" lon="2.43987">
        <ele>663.7</ele>
        <time>2018-06-25T11:42:14Z</time>
      </trkpt>
      <trkpt lat="43.0037" lon="2.43912">
        <ele>659.9</ele>
        <time>2018-06-25T11:42:26Z</time>
      </trkpt>
      <trkpt lat="43.00514" lon="2.43875">
        <ele>640.1</ele>
        <time>2018-06-25T11:42:49Z</time>
      </trkpt>
      <trkpt lat="43.00514" lon="2.43875">
        <ele>640.1</ele>
        <time>2018-06-25T11:42:49Z</time>
      </trkpt>
      <trkpt lat="43.00514" lon="2.43875">
        <ele>640.1</ele>
        <time>2018-06-25T11:42:49Z</time>
      </trkpt>
      <trkpt lat="43.00862" lon="2.44099">
        <ele>626.4</ele>
        <time>2018-06-25T11:43:53Z</time>
      </trkpt>
      <trkpt lat="43.00862" lon="2.44099">
        <ele>626.4</ele>
        <time>2018-06-25T11:43:53Z</time>
      </trkpt>
      <trkpt lat="43.0098" lon="2.44052">
        <ele>603.8</ele>
        <time>2018-06-25T11:44:21Z</time>
      </trkpt>
      <trkpt lat="43.00944" lon="2.44213">
        <ele>621.9</ele>
        <time>2018-06-25T11:44:52Z</time>
      </trkpt>
      <trkpt lat="43.00996" lon="2.44307">
        <ele>626.5</ele>
        <time>2018-06-25T11:45:17Z</time>
      </trkpt>
      <trkpt lat="43.00969" lon="2.44526">
        <ele>634</ele>
        <time>2018-06-25T11:45:52Z</time>
      </trkpt>
      <trkpt lat="43.01017" lon="2.44717">
        <ele>651.5</ele>
        <time>2018-06-25T11:46:32Z</time>
      </trkpt>
      <trkpt lat="43.01017" lon="2.44717">
        <ele>651.5</ele>
        <time>2018-06-25T11:46:32Z</time>
      </trkpt>
      <trkpt lat="43.01017" lon="2.44717">
        <ele>651.5</ele>
        <time>2018-06-25T11:46:32Z</time>
      </trkpt>
      <trkpt lat="43.01106" lon="2.44797">
        <ele>662.3</ele>
        <time>2018-06-25T11:46:58Z</time>
      </trkpt>
      <trkpt lat="43.01106" lon="2.44797">
        <ele>662.3</ele>
        <time>2018-06-25T11:46:58Z</time>
      </trkpt>
      <trkpt lat="43.01106" lon="2.44797">
        <ele>662.3</ele>
        <time>2018-06-25T11:46:58Z</time>
      </trkpt>
      <trkpt lat="43.01223" lon="2.45331">
        <ele>713.3</ele>
        <time>2018-06-25T11:48:40Z</time>
      </trkpt>
      <trkpt lat="43.01288" lon="2.45145">
        <ele>737.4</ele>
        <time>2018-06-25T11:59:01Z</time>
      </trkpt>
      <trkpt lat="43.01288" lon="2.45145">
        <ele>747.5</ele>
        <time>2018-06-25T12:00:46Z</time>
      </trkpt>
      <trkpt lat="43.01449" lon="2.45091">
        <ele>721.3</ele>
        <time>2018-06-25T12:02:09Z</time>
      </trkpt>
      <trkpt lat="43.01449" lon="2.45091">
        <ele>721.3</ele>
        <time>2018-06-25T12:02:09Z</time>
      </trkpt>
      <trkpt lat="43.01491" lon="2.44886">
        <ele>717</ele>
        <time>2018-06-25T12:02:49Z</time>
      </trkpt>
      <trkpt lat="43.01491" lon="2.44886">
        <ele>717</ele>
        <time>2018-06-25T12:02:49Z</time>
      </trkpt>
      <trkpt lat="43.01574" lon="2.44715">
        <ele>714.6</ele>
        <time>2018-06-25T12:03:28Z</time>
      </trkpt>
      <trkpt lat="43.01595" lon="2.44291">
        <ele>724.9</ele>
        <time>2018-06-25T12:07:40Z</time>
      </trkpt>
      <trkpt lat="43.01595" lon="2.44291">
        <ele>724.9</ele>
        <time>2018-06-25T12:07:40Z</time>
      </trkpt>
      <trkpt lat="43.01595" lon="2.44291">
        <ele>724.9</ele>
        <time>2018-06-25T12:07:40Z</time>
      </trkpt>
      <trkpt lat="43.01564" lon="2.4421">
        <ele>713.9</ele>
        <time>2018-06-25T12:08:16Z</time>
      </trkpt>
      <trkpt lat="43.01582" lon="2.44063">
        <ele>712.4</ele>
        <time>2018-06-25T12:15:40Z</time>
      </trkpt>
      <trkpt lat="43.01582" lon="2.44063">
        <ele>712.4</ele>
        <time>2018-06-25T12:15:40Z</time>
      </trkpt>
      <trkpt lat="43.01823" lon="2.44369">
        <ele>672.4</ele>
        <time>2018-06-25T12:21:44Z</time>
      </trkpt>
      <trkpt lat="43.01823" lon="2.44369">
        <ele>672.4</ele>
        <time>2018-06-25T12:21:44Z</time>
      </trkpt>
      <trkpt lat="43.0186" lon="2.44511">
        <ele>663.7</ele>
        <time>2018-06-25T12:22:18Z</time>
      </trkpt>
      <trkpt lat="43.02023" lon="2.4438">
        <ele>675.6</ele>
        <time>2018-06-25T12:40:50Z</time>
      </trkpt>
      <trkpt lat="43.02023" lon="2.4438">
        <ele>675.6</ele>
        <time>2018-06-25T12:40:50Z</time>
      </trkpt>
      <trkpt lat="43.02023" lon="2.4438">
        <ele>675.6</ele>
        <time>2018-06-25T12:40:50Z</time>
      </trkpt>
      <trkpt lat="43.02101" lon="2.44114">
        <ele>670.2</ele>
        <time>2018-06-25T12:45:32Z</time>
      </trkpt>
      <trkpt lat="43.0209" lon="2.43903">
        <ele>672.9</ele>
        <time>2018-06-25T12:50:26Z</time>
      </trkpt>
      <trkpt lat="43.0209" lon="2.43903">
        <ele>672.9</ele>
        <time>2018-06-25T12:50:26Z</time>
      </trkpt>
      <trkpt lat="43.02234" lon="2.43623">
        <ele>642.5</ele>
        <time>2018-06-25T12:51:31Z</time>
      </trkpt>
      <trkpt lat="43.02234" lon="2.43623">
        <ele>642.5</ele>
        <time>2018-06-25T12:51:31Z</time>
      </trkpt>
      <trkpt lat="43.02273" lon="2.43425">
        <ele>640.6</ele>
        <time>2018-06-25T12:52:17Z</time>
      </trkpt>
      <trkpt lat="43.02399" lon="2.43435">
        <ele>629.8</ele>
        <time>2018-06-25T12:53:02Z</time>
      </trkpt>
      <trkpt lat="43.02473" lon="2.4334">
        <ele>629.2</ele>
        <time>2018-06-25T12:53:34Z</time>
      </trkpt>
      <trkpt lat="43.02517" lon="2.43617">
        <ele>612.3</ele>
        <time>2018-06-25T12:54:38Z</time>
      </trkpt>
      <trkpt lat="43.02517" lon="2.43617">
        <ele>612.3</ele>
        <time>2018-06-25T12:54:38Z</time>
      </trkpt>
      <trkpt lat="43.02517" lon="2.43617">
        <ele>612.3</ele>
        <time>2018-06-25T12:54:38Z</time>
      </trkpt>
      <trkpt lat="43.02595" lon="2.43718">
        <ele>608</ele>
        <time>2018-06-25T12:55:00Z</time>
      </trkpt>
      <trkpt lat="43.02632" lon="2.43689">
        <ele>594</ele>
        <time>2018-06-25T12:55:10Z</time>
      </trkpt>
      <trkpt lat="43.02632" lon="2.43689">
        <ele>594</ele>
        <time>2018-06-25T12:55:10Z</time>
      </trkpt>
      <trkpt lat="43.02644" lon="2.43562">
        <ele>595.2</ele>
        <time>2018-06-25T12:55:31Z</time>
      </trkpt>
      <trkpt lat="43.02644" lon="2.43562">
        <ele>595.2</ele>
        <time>2018-06-25T12:55:31Z</time>
      </trkpt>
      <trkpt lat="43.0268" lon="2.43561">
        <ele>592.7</ele>
        <time>2018-06-25T12:55:43Z</time>
      </trkpt>
      <trkpt lat="43.02739" lon="2.43791">
        <ele>574.8</ele>
        <time>2018-06-25T12:57:47Z</time>
      </trkpt>
      <trkpt lat="43.02716" lon="2.44022">
        <ele>572</ele>
        <time>2018-06-25T12:58:13Z</time>
      </trkpt>
      <trkpt lat="43.02624" lon="2.44293">
        <ele>566.1</ele>
        <time>2018-06-25T12:58:41Z</time>
      </trkpt>
      <trkpt lat="43.02734" lon="2.4426">
        <ele>558.3</ele>
        <time>2018-06-25T12:58:57Z</time>
      </trkpt>
      <trkpt lat="43.02734" lon="2.4426">
        <ele>558.3</ele>
        <time>2018-06-25T12:58:57Z</time>
      </trkpt>
      <trkpt lat="43.02734" lon="2.4426">
        <ele>558.3</ele>
        <time>2018-06-25T12:58:57Z</time>
      </trkpt>
      <trkpt lat="43.02734" lon="2.4426">
        <ele>558.3</ele>
        <time>2018-06-25T12:58:57Z</time>
      </trkpt>
      <trkpt lat="43.02959" lon="2.4392">
        <ele>570.3</ele>
        <time>2018-06-25T12:59:54Z</time>
      </trkpt>
      <trkpt lat="43.02959" lon="2.4392">
        <ele>570.3</ele>
        <time>2018-06-25T12:59:54Z</time>
      </trkpt>
      <trkpt lat="43.02912" lon="2.44067">
        <ele>549.5</ele>
        <time>2018-06-25T13:00:18Z</time>
      </trkpt>
      <trkpt lat="43.02915" lon="2.44164">
        <ele>554.1</ele>
        <time>2018-06-25T13:00:18Z</time>
      </trkpt>
      <trkpt lat="43.02862" lon="2.44217">
        <ele>549.9</ele>
        <time>2018-06-25T13:00:18Z</time>
      </trkpt>
      <trkpt lat="43.02839" lon="2.44328">
        <ele>554.4</ele>
        <time>2018-06-25T13:00:18Z</time>
      </trkpt>
      <trkpt lat="43.02761" lon="2.4447">
        <ele>551.8</ele>
        <time>2018-06-25T13:00:18Z</time>
      </trkpt>
      <trkpt lat="43.02718" lon="2.44602">
        <ele>559.4</ele>
        <time>2018-06-25T13:00:18Z</time>
      </trkpt>
      <trkpt lat="43.02738" lon="2.44683">
        <ele>561.9</ele>
        <time>2018-06-25T13:00:18Z</time>
      </trkpt>
      <trkpt lat="43.02597" lon="2.45188">
        <ele>582.8</ele>
        <time>2018-06-25T13:00:18Z</time>
      </trkpt>
      <trkpt lat="43.02597" lon="2.45188">
        <ele>582.8</ele>
        <time>2018-06-25T13:00:18Z</time>
      </trkpt>
      <trkpt lat="43.02516" lon="2.45373">
        <ele>588.5</ele>
        <time>2018-06-25T13:00:18Z</time>
      </trkpt>
      <trkpt lat="43.02618" lon="2.45311">
        <ele>593.9</ele>
        <time>2018-06-25T13:00:18Z</time>
      </trkpt>
      <trkpt lat="43.02729" lon="2.45546">
        <ele>585.7</ele>
        <time>2018-06-25T13:00:18Z</time>
      </trkpt>
      <trkpt lat="43.02761" lon="2.45618">
        <ele>582.7</ele>
        <time>2018-06-25T13:00:18Z</time>
      </trkpt>
      <trkpt lat="43.0281" lon="2.45589">
        <ele>587.5</ele>
        <time>2018-06-25T13:00:18Z</time>
      </trkpt>
      <trkpt lat="43.0281" lon="2.45589">
        <ele>587.5</ele>
        <time>2018-06-25T13:00:18Z</time>
      </trkpt>
      <trkpt lat="43.02836" lon="2.45502">
        <ele>589.4</ele>
        <time>2018-06-25T13:00:18Z</time>
      </trkpt>
      <trkpt lat="43.02855" lon="2.45511">
        <ele>594.7</ele>
        <time>2018-06-25T13:00:18Z</time>
      </trkpt>
      <trkpt lat="43.02852" lon="2.45725">
        <ele>598</ele>
        <time>2018-06-25T13:00:18Z</time>
      </trkpt>
      <trkpt lat="43.02882" lon="2.45787">
        <ele>606.3</ele>
        <time>2018-06-25T13:00:18Z</time>
      </trkpt>
      <trkpt lat="43.02901" lon="2.46049">
        <ele>625.1</ele>
        <time>2018-06-25T13:00:18Z</time>
      </trkpt>
      <trkpt lat="43.02888" lon="2.46174">
        <ele>619.6</ele>
        <time>2018-06-25T13:00:18Z</time>
      </trkpt>
      <trkpt lat="43.02934" lon="2.46223">
        <ele>644.2</ele>
        <time>2018-06-25T13:00:18Z</time>
      </trkpt>
      <trkpt lat="43.0306" lon="2.46415">
        <ele>658.7</ele>
        <time>2018-06-25T13:00:18Z</time>
      </trkpt>
      <trkpt lat="43.03062" lon="2.46544">
        <ele>650.7</ele>
        <time>2018-06-25T13:00:18Z</time>
      </trkpt>
      <trkpt lat="43.03062" lon="2.46544">
        <ele>650.7</ele>
        <time>2018-06-25T13:00:18Z</time>
      </trkpt>
      <trkpt lat="43.03117" lon="2.46693">
        <ele>653.2</ele>
        <time>2018-06-25T13:00:18Z</time>
      </trkpt>
      <trkpt lat="43.03163" lon="2.46717">
        <ele>656.2</ele>
        <time>2018-06-25T13:00:18Z</time>
      </trkpt>
      <trkpt lat="43.03225" lon="2.46883">
        <ele>672.8</ele>
        <time>2018-06-25T13:00:18Z</time>
      </trkpt>
      <trkpt lat="43.03149" lon="2.47239">
        <ele>691</ele>
        <time>2018-06-25T13:00:18Z</time>
      </trkpt>
      <trkpt lat="43.03178" lon="2.47366">
        <ele>689.1</ele>
        <time>2018-06-25T13:00:18Z</time>
      </trkpt>
      <trkpt lat="43.03224" lon="2.47421">
        <ele>693.3</ele>
        <time>2018-06-25T13:00:18Z</time>
      </trkpt>
      <trkpt lat="43.03366" lon="2.47344">
        <ele>705.1</ele>
        <time>2018-06-25T13:00:18Z</time>
      </trkpt>
      <trkpt lat="43.03366" lon="2.47344">
        <ele>705.1</ele>
        <time>2018-06-25T13:00:18Z</time>
      </trkpt>
      <trkpt lat="43.0355" lon="2.47831">
        <ele>712.5</ele>
        <time>2018-06-25T13:00:18Z</time>
      </trkpt>
      <trkpt lat="43.0353" lon="2.47904">
        <ele>713.5</ele>
        <time>2018-06-25T13:00:18Z</time>
      </trkpt>
      <trkpt lat="43.03652" lon="2.47768">
        <ele>704.5</ele>
        <time>2018-06-25T13:00:18Z</time>
      </trkpt>
      <trkpt lat="43.03871" lon="2.4772">
        <ele>686.4</ele>
        <time>2018-06-25T13:00:18Z</time>
      </trkpt>
      <trkpt lat="43.04135" lon="2.47788">
        <ele>663.5</ele>
        <time>2018-06-25T13:00:18Z</time>
      </trkpt>
      <trkpt lat="43.04135" lon="2.47788">
        <ele>663.5</ele>
        <time>2018-06-25T13:00:18Z</time>
      </trkpt>
      <trkpt lat="43.04145" lon="2.4786">
        <ele>663.8</ele>
        <time>2018-06-25T13:00:18Z</time>
      </trkpt>
      <trkpt lat="43.04275" lon="2.4789">
        <ele>655.1</ele>
        <time>2018-06-25T13:00:18Z</time>
      </trkpt>
      <trkpt lat="43.0406" lon="2.47982">
        <ele>655.4</ele>
        <time>2018-06-25T13:00:18Z</time>
      </trkpt>
      <trkpt lat="43.04299" lon="2.48173">
        <ele>648.6</ele>
        <time>2018-06-25T13:00:18Z</time>
      </trkpt>
      <trkpt lat="43.04299" lon="2.48173">
        <ele>648.6</ele>
        <time>2018-06-25T13:00:18Z</time>
      </trkpt>
      <trkpt lat="43.03876" lon="2.48688">
        <ele>676</ele>
        <time>2018-06-25T13:00:18Z</time>
      </trkpt>
      <trkpt lat="43.03816" lon="2.48708">
        <ele>676.5</ele>
        <time>2018-06-25T13:00:18Z</time>
      </trkpt>
      <trkpt lat="43.03649" lon="2.48579">
        <ele>688.4</ele>
        <time>2018-06-25T13:00:18Z</time>
      </trkpt>
      <trkpt lat="43.03562" lon="2.4862">
        <ele>681</ele>
        <time>2018-06-25T13:00:18Z</time>
      </trkpt>
      <trkpt lat="43.03562" lon="2.4862">
        <ele>681</ele>
        <time>2018-06-25T13:00:18Z</time>
      </trkpt>
      <trkpt lat="43.03565" lon="2.48793">
        <ele>675.3</ele>
        <time>2018-06-25T13:00:18Z</time>
      </trkpt>
      <trkpt lat="43.03639" lon="2.48998">
        <ele>677.2</ele>
        <time>2018-06-25T13:00:18Z</time>
      </trkpt>
      <trkpt lat="43.03642" lon="2.49487">
        <ele>672.9</ele>
        <time>2018-06-25T13:00:18Z</time>
      </trkpt>
      <trkpt lat="43.03887" lon="2.50002">
        <ele>651.6</ele>
        <time>2018-06-25T13:00:18Z</time>
      </trkpt>
      <trkpt lat="43.03887" lon="2.50002">
        <ele>651.6</ele>
        <time>2018-06-25T13:00:18Z</time>
      </trkpt>
      <trkpt lat="43.03871" lon="2.5022">
        <ele>646.9</ele>
        <time>2018-06-25T13:00:18Z</time>
      </trkpt>
      <trkpt lat="43.04434" lon="2.50842">
        <ele>605.5</ele>
        <time>2018-06-25T13:00:18Z</time>
      </trkpt>
      <trkpt lat="43.04434" lon="2.50842">
        <ele>605.5</ele>
        <time>2018-06-25T13:00:18Z</time>
      </trkpt>
      <trkpt lat="43.04534" lon="2.50908">
        <ele>597.2</ele>
        <time>2018-06-25T13:00:18Z</time>
      </trkpt>
      <trkpt lat="43.0468" lon="2.50897">
        <ele>578.6</ele>
        <time>2018-06-25T13:00:18Z</time>
      </trkpt>
      <trkpt lat="43.0475" lon="2.50864">
        <ele>559</ele>
        <time>2018-06-25T13:00:18Z</time>
      </trkpt>
      <trkpt lat="43.04788" lon="2.5089">
        <ele>559.7</ele>
        <time>2018-06-25T13:00:18Z</time>
      </trkpt>
      <trkpt lat="43.04796" lon="2.50955">
        <ele>569.4</ele>
        <time>2018-06-25T13:00:18Z</time>
      </trkpt>
      <trkpt lat="43.04807" lon="2.51057">
        <ele>561.8</ele>
        <time>2018-06-25T13:00:18Z</time>
      </trkpt>
      <trkpt lat="43.04785" lon="2.51155">
        <ele>555</ele>
      </trkpt>
      <trkpt lat="43.04768" lon="2.51172">
        <ele>553.3</ele>
        <time>2018-06-25T13:00:18Z</time>
      </trkpt>
      <trkpt lat="43.04823" lon="2.51201">
        <ele>545</ele>
        <time>2018-06-25T13:00:18Z</time>
      </trkpt>
      <trkpt lat="43.04823" lon="2.51201">
        <ele>545</ele>
        <time>2018-06-25T13:00:18Z</time>
      </trkpt>
      <trkpt lat="43.04926" lon="2.51116">
        <ele>532.5</ele>
        <time>2018-06-25T13:00:18Z</time>
      </trkpt>
      <trkpt lat="43.0498" lon="2.5111">
        <ele>524.9</ele>
        <time>2018-06-25T13:00:18Z</time>
      </trkpt>
      <trkpt lat="43.04868" lon="2.51307">
        <ele>515.9</ele>
        <time>2018-06-25T13:00:18Z</time>
      </trkpt>
      <trkpt lat="43.04787" lon="2.51335">
        <ele>510.9</ele>
        <time>2018-06-25T13:00:18Z</time>
      </trkpt>
      <trkpt lat="43.04856" lon="2.51357">
        <ele>502.1</ele>
        <time>2018-06-25T13:00:18Z</time>
      </trkpt>
      <trkpt lat="43.05023" lon="2.51233">
        <ele>484</ele>
        <time>2018-06-25T13:00:18Z</time>
      </trkpt>
      <trkpt lat="43.05164" lon="2.5124">
        <ele>467.1</ele>
        <time>2018-06-25T13:00:18Z</time>
      </trkpt>
      <trkpt lat="43.05205" lon="2.51255">
        <ele>454.7</ele>
        <time>2018-06-25T13:00:18Z</time>
      </trkpt>
      <trkpt lat="43.05224" lon="2.51264">
        <ele>455.1</ele>
        <time>2018-06-25T13:00:18Z</time>
      </trkpt>
      <trkpt lat="43.05224" lon="2.51264">
        <ele>455.1</ele>
        <time>2018-06-25T13:00:18Z</time>
      </trkpt>
      <trkpt lat="43.05244" lon="2.51539">
        <ele>439.4</ele>
        <time>2018-06-25T13:00:18Z</time>
      </trkpt>
      <trkpt lat="43.05212" lon="2.51709">
        <ele>426</ele>
        <time>2018-06-25T13:00:18Z</time>
      </trkpt>
      <trkpt lat="43.0515" lon="2.51726">
        <ele>409.4</ele>
        <time>2018-06-25T13:00:18Z</time>
      </trkpt>
      <trkpt lat="43.05113" lon="2.51891">
        <ele>409</ele>
        <time>2018-06-25T13:00:18Z</time>
      </trkpt>
      <trkpt lat="43.05217" lon="2.51958">
        <ele>422.5</ele>
        <time>2018-06-25T13:00:18Z</time>
      </trkpt>
      <trkpt lat="43.05339" lon="2.52091">
        <ele>410.2</ele>
        <time>2018-06-25T13:00:18Z</time>
      </trkpt>
      <trkpt lat="43.05477" lon="2.52091">
        <ele>386.5</ele>
        <time>2018-06-25T13:00:18Z</time>
      </trkpt>
      <trkpt lat="43.05477" lon="2.52091">
        <ele>386.5</ele>
        <time>2018-06-25T13:00:18Z</time>
      </trkpt>
      <trkpt lat="43.0552" lon="2.51885">
        <ele>383.3</ele>
        <time>2018-06-25T13:00:18Z</time>
      </trkpt>
      <trkpt lat="43.05654" lon="2.51739">
        <ele>380.8</ele>
        <time>2018-06-25T13:00:18Z</time>
      </trkpt>
      <trkpt lat="43.05685" lon="2.51746">
        <ele>376.1</ele>
        <time>2018-06-25T13:00:18Z</time>
      </trkpt>
      <trkpt lat="43.05713" lon="2.51819">
        <ele>358.1</ele>
        <time>2018-06-25T13:00:18Z</time>
      </trkpt>
      <trkpt lat="43.05716" lon="2.51887">
        <ele>347</ele>
        <time>2018-06-25T13:00:18Z</time>
      </trkpt>
      <trkpt lat="43.05707" lon="2.51928">
        <ele>337.5</ele>
        <time>2018-06-25T13:00:18Z</time>
      </trkpt>
      <trkpt lat="43.0567" lon="2.51854">
        <ele>350.8</ele>
        <time>2018-06-25T13:00:18Z</time>
      </trkpt>
      <trkpt lat="43.05653" lon="2.51914">
        <ele>341.1</ele>
        <time>2018-06-25T13:00:18Z</time>
      </trkpt>
      <trkpt lat="43.05668" lon="2.51961">
        <ele>332.7</ele>
        <time>2018-06-25T13:00:18Z</time>
      </trkpt>
      <trkpt lat="43.05682" lon="2.52001">
        <ele>325.1</ele>
        <time>2018-06-25T13:00:18Z</time>
      </trkpt>
      <trkpt lat="43.05679" lon="2.52069">
        <ele>315.3</ele>
        <time>2018-06-25T13:00:18Z</time>
      </trkpt>
      <trkpt lat="43.05672" lon="2.52116">
        <ele>322.8</ele>
        <time>2018-06-25T13:00:18Z</time>
      </trkpt>
      <trkpt lat="43.05703" lon="2.52227">
        <ele>327.5</ele>
        <time>2018-06-25T13:00:18Z</time>
      </trkpt>
      <trkpt lat="43.05703" lon="2.52227">
        <ele>327.5</ele>
        <time>2018-06-25T13:00:18Z</time>
      </trkpt>
      <trkpt lat="43.05655" lon="2.52379">
        <ele>324.3</ele>
        <time>2018-06-25T13:00:18Z</time>
      </trkpt>
      <trkpt lat="43.05606" lon="2.5244">
        <ele>320.1</ele>
        <time>2018-06-25T13:00:18Z</time>
      </trkpt>
      <trkpt lat="43.05535" lon="2.52432">
        <ele>319.5</ele>
        <time>2018-06-25T13:00:18Z</time>
      </trkpt>
      <trkpt lat="43.05472" lon="2.52428">
        <ele>316.4</ele>
        <time>2018-06-25T13:00:18Z</time>
      </trkpt>
      <trkpt lat="43.05349" lon="2.52346">
        <ele>326.5</ele>
        <time>2018-06-25T13:00:18Z</time>
      </trkpt>
      <trkpt lat="43.05252" lon="2.52289">
        <ele>327.7</ele>
        <time>2018-06-25T13:00:18Z</time>
      </trkpt>
      <trkpt lat="43.05148" lon="2.52239">
        <ele>333.4</ele>
        <time>2018-06-25T13:00:18Z</time>
      </trkpt>
      <trkpt lat="43.04999" lon="2.52388">
        <ele>334.4</ele>
        <time>2018-06-25T13:00:18Z</time>
      </trkpt>
      <trkpt lat="43.0484" lon="2.52406">
        <ele>331.7</ele>
        <time>2018-06-25T13:00:18Z</time>
      </trkpt>
      <trkpt lat="43.0484" lon="2.52406">
        <ele>331.7</ele>
        <time>2018-06-25T13:00:18Z</time>
      </trkpt>
      <trkpt lat="43.04769" lon="2.52341">
        <ele>338.4</ele>
        <time>2018-06-25T13:00:18Z</time>
      </trkpt>
      <trkpt lat="43.04756" lon="2.52266">
        <ele>340.1</ele>
        <time>2018-06-25T13:00:18Z</time>
      </trkpt>
      <trkpt lat="43.04758" lon="2.52189">
        <ele>333.2</ele>
        <time>2018-06-25T13:00:18Z</time>
      </trkpt>
      <trkpt lat="43.04771" lon="2.52154">
        <ele>333.3</ele>
        <time>2018-06-25T13:00:18Z</time>
      </trkpt>
      <trkpt lat="43.04757" lon="2.52141">
        <ele>333.7</ele>
        <time>2018-06-25T13:00:18Z</time>
      </trkpt>
      <trkpt lat="43.0473" lon="2.52152">
        <ele>338.9</ele>
        <time>2018-06-25T13:00:18Z</time>
      </trkpt>
      <trkpt lat="43.04694" lon="2.52191">
        <ele>355.5</ele>
        <time>2018-06-25T13:00:18Z</time>
      </trkpt>
      <trkpt lat="43.04681" lon="2.52226">
        <ele>360.2</ele>
        <time>2018-06-25T13:00:18Z</time>
      </trkpt>
      <trkpt lat="43.04679" lon="2.52279">
        <ele>355.7</ele>
        <time>2018-06-25T13:00:18Z</time>
      </trkpt>
      <trkpt lat="43.04657" lon="2.52341">
        <ele>362.1</ele>
        <time>2018-06-25T13:00:18Z</time>
      </trkpt>
      <trkpt lat="43.0465" lon="2.5229">
        <ele>369.1</ele>
        <time>2018-06-25T13:00:18Z</time>
      </trkpt>
      <trkpt lat="43.04592" lon="2.52286">
        <ele>381.9</ele>
        <time>2018-06-25T13:00:18Z</time>
      </trkpt>
      <trkpt lat="43.04567" lon="2.52318">
        <ele>380.5</ele>
        <time>2018-06-25T13:00:18Z</time>
      </trkpt>
      <trkpt lat="43.04552" lon="2.52389">
        <ele>381.1</ele>
        <time>2018-06-25T13:00:18Z</time>
      </trkpt>
      <trkpt lat="43.04594" lon="2.52503">
        <ele>384.8</ele>
        <time>2018-06-25T13:00:18Z</time>
      </trkpt>
      <trkpt lat="43.04585" lon="2.52584">
        <ele>409.9</ele>
        <time>2018-06-25T13:00:18Z</time>
      </trkpt>
      <trkpt lat="43.04585" lon="2.52584">
        <ele>409.9</ele>
        <time>2018-06-25T13:00:18Z</time>
      </trkpt>
      <trkpt lat="43.04457" lon="2.52375">
        <ele>441.1</ele>
        <time>2018-06-25T13:00:18Z</time>
      </trkpt>
      <trkpt lat="43.04515" lon="2.52913">
        <ele>469.3</ele>
        <time>2018-06-25T13:00:18Z</time>
      </trkpt>
      <trkpt lat="43.04607" lon="2.52964">
        <ele>460.9</ele>
        <time>2018-06-25T13:00:18Z</time>
      </trkpt>
      <trkpt lat="43.04653" lon="2.53021">
        <ele>457.2</ele>
        <time>2018-06-25T13:00:18Z</time>
      </trkpt>
      <trkpt lat="43.04673" lon="2.53102">
        <ele>456.2</ele>
        <time>2018-06-25T13:00:18Z</time>
      </trkpt>
      <trkpt lat="43.04784" lon="2.53214">
        <ele>456.8</ele>
        <time>2018-06-25T13:00:18Z</time>
      </trkpt>
      <trkpt lat="43.04784" lon="2.53214">
        <ele>456.8</ele>
        <time>2018-06-25T13:00:18Z</time>
      </trkpt>
      <trkpt lat="43.04838" lon="2.532">
        <ele>457.8</ele>
        <time>2018-06-25T13:00:18Z</time>
      </trkpt>
      <trkpt lat="43.04871" lon="2.53157">
        <ele>443.3</ele>
        <time>2018-06-25T13:00:18Z</time>
      </trkpt>
      <trkpt lat="43.04966" lon="2.53139">
        <ele>439.1</ele>
        <time>2018-06-25T13:00:18Z</time>
      </trkpt>
      <trkpt lat="43.05067" lon="2.53123">
        <ele>432.8</ele>
        <time>2018-06-25T13:00:18Z</time>
      </trkpt>
      <trkpt lat="43.05128" lon="2.53117">
        <ele>433.8</ele>
        <time>2018-06-25T13:00:18Z</time>
      </trkpt>
      <trkpt lat="43.05214" lon="2.53143">
        <ele>434.5</ele>
        <time>2018-06-25T13:00:18Z</time>
      </trkpt>
      <trkpt lat="43.05227" lon="2.52988">
        <ele>417.5</ele>
        <time>2018-06-25T13:00:18Z</time>
      </trkpt>
      <trkpt lat="43.05137" lon="2.52689">
        <ele>359</ele>
        <time>2018-06-25T13:00:18Z</time>
      </trkpt>
      <trkpt lat="43.05031" lon="2.5262">
        <ele>340</ele>
        <time>2018-06-25T13:00:18Z</time>
      </trkpt>
      <trkpt lat="43.05031" lon="2.5262">
        <ele>340</ele>
        <time>2018-06-25T13:00:18Z</time>
      </trkpt>
      <trkpt lat="43.04949" lon="2.52545">
        <ele>328.5</ele>
        <time>2018-06-25T13:00:18Z</time>
      </trkpt>
      <trkpt lat="43.05166" lon="2.52506">
        <ele>306</ele>
        <time>2018-06-25T13:00:18Z</time>
      </trkpt>
      <trkpt lat="43.05311" lon="2.52618">
        <ele>296.8</ele>
        <time>2018-06-25T13:00:18Z</time>
      </trkpt>
      <trkpt lat="43.05346" lon="2.52706">
        <ele>307.8</ele>
        <time>2018-06-25T13:00:18Z</time>
      </trkpt>
      <trkpt lat="43.05432" lon="2.52804">
        <ele>315</ele>
        <time>2018-06-25T13:00:18Z</time>
      </trkpt>
      <trkpt lat="43.05491" lon="2.52813">
        <ele>314.7</ele>
        <time>2018-06-25T13:00:18Z</time>
      </trkpt>
      <trkpt lat="43.05492" lon="2.52952">
        <ele>338.9</ele>
        <time>2018-06-25T13:00:18Z</time>
      </trkpt>
      <trkpt lat="43.05492" lon="2.52952">
        <ele>338.9</ele>
        <time>2018-06-25T13:00:18Z</time>
      </trkpt>
      <trkpt lat="43.05556" lon="2.53113">
        <ele>348.4</ele>
        <time>2018-06-25T13:00:18Z</time>
      </trkpt>
      <trkpt lat="43.05535" lon="2.5325">
        <ele>373</ele>
        <time>2018-06-25T13:00:18Z</time>
      </trkpt>
      <trkpt lat="43.05465" lon="2.53344">
        <ele>376.3</ele>
        <time>2018-06-25T13:00:18Z</time>
      </trkpt>
      <trkpt lat="43.05331" lon="2.53453">
        <ele>371.8</ele>
        <time>2018-06-25T13:00:18Z</time>
      </trkpt>
      <trkpt lat="43.05228" lon="2.53388">
        <ele>379.8</ele>
        <time>2018-06-25T13:00:18Z</time>
      </trkpt>
      <trkpt lat="43.0515" lon="2.53343">
        <ele>378.8</ele>
        <time>2018-06-25T13:00:18Z</time>
      </trkpt>
      <trkpt lat="43.05096" lon="2.53349">
        <ele>383.7</ele>
        <time>2018-06-25T13:00:18Z</time>
      </trkpt>
      <trkpt lat="43.05088" lon="2.53403">
        <ele>365.4</ele>
        <time>2018-06-25T13:00:18Z</time>
      </trkpt>
      <trkpt lat="43.05088" lon="2.53668">
        <ele>378.9</ele>
        <time>2018-06-25T13:00:18Z</time>
      </trkpt>
      <trkpt lat="43.05088" lon="2.53668">
        <ele>378.9</ele>
        <time>2018-06-25T13:00:18Z</time>
      </trkpt>
      <trkpt lat="43.05049" lon="2.53749">
        <ele>381.8</ele>
        <time>2018-06-25T13:00:18Z</time>
      </trkpt>
      <trkpt lat="43.04696" lon="2.54102">
        <ele>347.8</ele>
        <time>2018-06-25T13:00:18Z</time>
      </trkpt>
      <trkpt lat="43.04719" lon="2.54209">
        <ele>342.7</ele>
        <time>2018-06-25T13:00:18Z</time>
      </trkpt>
      <trkpt lat="43.04634" lon="2.54164">
        <ele>326.3</ele>
        <time>2018-06-25T13:00:18Z</time>
      </trkpt>
      <trkpt lat="43.04608" lon="2.54034">
        <ele>335.8</ele>
        <time>2018-06-25T13:00:18Z</time>
      </trkpt>
      <trkpt lat="43.04608" lon="2.54034">
        <ele>335.8</ele>
        <time>2018-06-25T13:00:18Z</time>
      </trkpt>
      <trkpt lat="43.04473" lon="2.54054">
        <ele>313.8</ele>
        <time>2018-06-25T13:00:18Z</time>
      </trkpt>
      <trkpt lat="43.04417" lon="2.53996">
        <ele>310.4</ele>
        <time>2018-06-25T13:00:18Z</time>
      </trkpt>
      <trkpt lat="43.0437" lon="2.53977">
        <ele>293.9</ele>
        <time>2018-06-25T13:00:18Z</time>
      </trkpt>
      <trkpt lat="43.04411" lon="2.53873">
        <ele>301.8</ele>
        <time>2018-06-25T13:00:18Z</time>
      </trkpt>
      <trkpt lat="43.04395" lon="2.53783">
        <ele>302.6</ele>
        <time>2018-06-25T13:00:18Z</time>
      </trkpt>
      <trkpt lat="43.04394" lon="2.53713">
        <ele>306</ele>
        <time>2018-06-25T13:00:18Z</time>
      </trkpt>
      <trkpt lat="43.04377" lon="2.53672">
        <ele>302.4</ele>
        <time>2018-06-25T13:00:18Z</time>
      </trkpt>
      <trkpt lat="43.04378" lon="2.5362">
        <ele>304.2</ele>
        <time>2018-06-25T13:00:18Z</time>
      </trkpt>
      <trkpt lat="43.04271" lon="2.53469">
        <ele>300.1</ele>
        <time>2018-06-25T13:00:18Z</time>
      </trkpt>
      <trkpt lat="43.04195" lon="2.53431">
        <ele>290</ele>
        <time>2018-06-25T13:00:18Z</time>
      </trkpt>
      <trkpt lat="43.04145" lon="2.53406">
        <ele>291</ele>
        <time>2018-06-25T13:00:18Z</time>
      </trkpt>
      <trkpt lat="43.04096" lon="2.53394">
        <ele>283.4</ele>
        <time>2018-06-25T13:00:18Z</time>
      </trkpt>
      <trkpt lat="43.04079" lon="2.53377">
        <ele>283.5</ele>
        <time>2018-06-25T13:00:18Z</time>
      </trkpt>
      <trkpt lat="43.04079" lon="2.53377">
        <ele>283.5</ele>
        <time>2018-06-25T13:00:18Z</time>
      </trkpt>
      <trkpt lat="43.0406" lon="2.53321">
        <ele>285.9</ele>
        <time>2018-06-25T13:00:18Z</time>
      </trkpt>
      <trkpt lat="43.0404" lon="2.53299">
        <ele>284.2</ele>
        <time>2018-06-25T13:00:18Z</time>
      </trkpt>
      <trkpt lat="43.0401" lon="2.53291">
        <ele>284.7</ele>
        <time>2018-06-25T13:00:18Z</time>
      </trkpt>
      <trkpt lat="43.03999" lon="2.53338">
        <ele>280.4</ele>
        <time>2018-06-25T13:00:18Z</time>
      </trkpt>
      <trkpt lat="43.03995" lon="2.53378">
        <ele>281.6</ele>
        <time>2018-06-25T13:00:18Z</time>
      </trkpt>
      <trkpt lat="43.04011" lon="2.53431">
        <ele>280.6</ele>
        <time>2018-06-25T13:00:18Z</time>
      </trkpt>
      <trkpt lat="43.0398" lon="2.53494">
        <ele>289.9</ele>
        <time>2018-06-25T13:00:18Z</time>
      </trkpt>
      <trkpt lat="43.03995" lon="2.53537">
        <ele>289.5</ele>
        <time>2018-06-25T13:00:18Z</time>
      </trkpt>
      <trkpt lat="43.03981" lon="2.53612">
        <ele>288.3</ele>
        <time>2018-06-25T13:00:18Z</time>
      </trkpt>
      <trkpt lat="43.03907" lon="2.53633">
        <ele>297.1</ele>
        <time>2018-06-25T13:00:18Z</time>
      </trkpt>
      <trkpt lat="43.03873" lon="2.53689">
        <ele>290.6</ele>
        <time>2018-06-25T13:00:18Z</time>
      </trkpt>
      <trkpt lat="43.03839" lon="2.53689">
        <ele>301</ele>
        <time>2018-06-25T13:00:18Z</time>
      </trkpt>
      <trkpt lat="43.03843" lon="2.5381">
        <ele>302.1</ele>
        <time>2018-06-25T13:00:18Z</time>
      </trkpt>
      <trkpt lat="43.03895" lon="2.53879">
        <ele>289.6</ele>
        <time>2018-06-25T13:00:18Z</time>
      </trkpt>
      <trkpt lat="43.03883" lon="2.54032">
        <ele>310.3</ele>
        <time>2018-06-25T13:00:18Z</time>
      </trkpt>
      <trkpt lat="43.0395" lon="2.54166">
        <ele>297.6</ele>
        <time>2018-06-25T13:00:18Z</time>
      </trkpt>
      <trkpt lat="43.0395" lon="2.54166">
        <ele>297.6</ele>
        <time>2018-06-25T13:00:18Z</time>
      </trkpt>
      <trkpt lat="43.0395" lon="2.54237">
        <ele>302</ele>
        <time>2018-06-25T13:00:18Z</time>
      </trkpt>
      <trkpt lat="43.03851" lon="2.54342">
        <ele>323.5</ele>
        <time>2018-06-25T13:00:18Z</time>
      </trkpt>
      <trkpt lat="43.03783" lon="2.54404">
        <ele>331</ele>
        <time>2018-06-25T13:00:18Z</time>
      </trkpt>
      <trkpt lat="43.03768" lon="2.54454">
        <ele>325.4</ele>
        <time>2018-06-25T13:00:18Z</time>
      </trkpt>
      <trkpt lat="43.03699" lon="2.54535">
        <ele>316.3</ele>
        <time>2018-06-25T13:00:18Z</time>
      </trkpt>
      <trkpt lat="43.03624" lon="2.54329">
        <ele>315.9</ele>
        <time>2018-06-25T13:00:18Z</time>
      </trkpt>
      <trkpt lat="43.03595" lon="2.54165">
        <ele>326.3</ele>
        <time>2018-06-25T13:00:18Z</time>
      </trkpt>
      <trkpt lat="43.03536" lon="2.54098">
        <ele>322.1</ele>
        <time>2018-06-25T13:00:18Z</time>
      </trkpt>
      <trkpt lat="43.03508" lon="2.54004">
        <ele>314.2</ele>
        <time>2018-06-25T13:00:18Z</time>
      </trkpt>
      <trkpt lat="43.03481" lon="2.53921">
        <ele>321.4</ele>
        <time>2018-06-25T13:00:18Z</time>
      </trkpt>
      <trkpt lat="43.03481" lon="2.53921">
        <ele>321.4</ele>
        <time>2018-06-25T13:00:18Z</time>
      </trkpt>
      <trkpt lat="43.03409" lon="2.53839">
        <ele>320.2</ele>
        <time>2018-06-25T13:00:18Z</time>
      </trkpt>
      <trkpt lat="43.03379" lon="2.53851">
        <ele>328.1</ele>
        <time>2018-06-25T13:00:18Z</time>
      </trkpt>
      <trkpt lat="43.03381" lon="2.53882">
        <ele>324</ele>
        <time>2018-06-25T13:00:18Z</time>
      </trkpt>
      <trkpt lat="43.03333" lon="2.53975">
        <ele>323.5</ele>
        <time>2018-06-25T13:00:18Z</time>
      </trkpt>
      <trkpt lat="43.03308" lon="2.53976">
        <ele>330.2</ele>
      </trkpt>
      <trkpt lat="43.03288" lon="2.53976">
        <ele>336</ele>
        <time>2018-06-25T13:00:18Z</time>
      </trkpt>
      <trkpt lat="43.03291" lon="2.54034">
        <ele>324</ele>
        <time>2018-06-25T13:00:18Z</time>
      </trkpt>
      <trkpt lat="43.03248" lon="2.54111">
        <ele>338.1</ele>
        <time>2018-06-25T13:00:18Z</time>
      </trkpt>
      <trkpt lat="43.03238" lon="2.54241">
        <ele>326.5</ele>
        <time>2018-06-25T13:00:18Z</time>
      </trkpt>
      <trkpt lat="43.03197" lon="2.54315">
        <ele>334.5</ele>
        <time>2018-06-25T13:00:18Z</time>
      </trkpt>
      <trkpt lat="43.0316" lon="2.54349">
        <ele>339.7</ele>
        <time>2018-06-25T13:00:18Z</time>
      </trkpt>
      <trkpt lat="43.03156" lon="2.54424">
        <ele>341.2</ele>
        <time>2018-06-25T13:00:18Z</time>
      </trkpt>
      <trkpt lat="43.03164" lon="2.54478">
        <ele>339</ele>
        <time>2018-06-25T13:00:18Z</time>
      </trkpt>
      <trkpt lat="43.03121" lon="2.54484">
        <ele>347</ele>
        <time>2018-06-25T13:00:18Z</time>
      </trkpt>
      <trkpt lat="43.03104" lon="2.54499">
        <ele>345.1</ele>
        <time>2018-06-25T13:00:18Z</time>
      </trkpt>
      <trkpt lat="43.03101" lon="2.545">
        <ele>344.9</ele>
        <time>2018-06-29T22:46:12Z</time>
      </trkpt>
      <trkpt lat="43.03054" lon="2.54522">
        <ele>329.7</ele>
        <time>2018-06-29T22:46:12Z</time>
      </trkpt>
      <trkpt lat="43.03054" lon="2.54522">
        <ele>329.7</ele>
        <time>2018-06-29T22:46:12Z</time>
      </trkpt>
      <trkpt lat="43.02965" lon="2.54387">
        <ele>331.7</ele>
        <time>2018-06-29T22:46:12Z</time>
      </trkpt>
      <trkpt lat="43.029" lon="2.54348">
        <ele>330</ele>
        <time>2018-10-18T04:05:01Z</time>
      </trkpt>
      <trkpt lat="43.02839" lon="2.54376">
        <ele>319.1</ele>
        <time>2019-01-27T04:23:44Z</time>
      </trkpt>
      <trkpt lat="43.02839" lon="2.54376">
        <ele>319.1</ele>
        <time>2019-01-27T04:23:44Z</time>
      </trkpt>
      <trkpt lat="43.027" lon="2.54304">
        <ele>324.8</ele>
        <time>2019-09-16T18:08:25Z</time>
      </trkpt>
      <trkpt lat="43.02623" lon="2.54276">
        <ele>321.3</ele>
        <time>2020-01-18T19:13:12Z</time>
      </trkpt>
      <trkpt lat="43.0254" lon="2.54246">
        <ele>313</ele>
        <time>2020-06-01T05:03:29Z</time>
      </trkpt>
      <trkpt lat="43.02482" lon="2.54213">
        <ele>290.9</ele>
        <time>2020-09-12T20:46:35Z</time>
      </trkpt>
      <trkpt lat="43.02403" lon="2.5419">
        <ele>292.6</ele>
        <time>2021-01-16T10:17:42Z</time>
      </trkpt>
      <trkpt lat="43.02383" lon="2.54279">
        <ele>283.8</ele>
        <time>2021-05-02T21:29:52Z</time>
      </trkpt>
      <trkpt lat="43.02319" lon="2.54338">
        <ele>279.2</ele>
        <time>2021-08-31T07:13:45Z</time>
      </trkpt>
      <trkpt lat="43.02319" lon="2.54338">
        <ele>279.2</ele>
        <time>2021-08-31T07:13:45Z</time>
      </trkpt>
      <trkpt lat="43.02296" lon="2.54438">
        <ele>276</ele>
        <time>2021-08-31T07:13:45Z</time>
      </trkpt>
      <trkpt lat="43.02293" lon="2.54655">
        <ele>243.9</ele>
        <time>2022-05-10T11:31:25Z</time>
      </trkpt>
      <trkpt lat="43.02193" lon="2.54706">
        <ele>238.7</ele>
        <time>2022-10-23T16:36:28Z</time>
      </trkpt>
      <trkpt lat="43.02193" lon="2.54706">
        <ele>238.7</ele>
        <time>2022-10-23T16:36:28Z</time>
      </trkpt>
      <trkpt lat="43.02179" lon="2.54666">
        <ele>234.3</ele>
        <time>2022-12-14T09:38:19Z</time>
      </trkpt>
      <trkpt lat="43.02047" lon="2.54751">
        <ele>228.2</ele>
        <time>2023-07-29T23:32:33Z</time>
      </trkpt>
      <trkpt lat="43.0198" lon="2.54751">
        <ele>221.8</ele>
        <time>2023-11-12T04:45:08Z</time>
      </trkpt>
      <trkpt lat="43.01932" lon="2.54775">
        <ele>219.2</ele>
        <time>2024-01-31T04:34:28Z</time>
      </trkpt>
      <trkpt lat="43.01908" lon="2.54795">
        <ele>219.8</ele>
        <time>2024-03-15T10:26:09Z</time>
      </trkpt>
      <trkpt lat="43.01952" lon="2.54919">
        <ele>221.5</ele>
        <time>2024-08-19T09:59:31Z</time>
      </trkpt>
      <trkpt lat="43.02063" lon="2.54873">
        <ele>236.3</ele>
        <time>2025-02-17T20:35:31Z</time>
      </trkpt>
      <trkpt lat="43.02063" lon="2.54873">
        <ele>236.3</ele>
        <time>2025-02-17T20:35:31Z</time>
      </trkpt>
      <trkpt lat="43.02187" lon="2.54876">
        <ele>234.1</ele>
        <time>2025-02-17T20:35:31Z</time>
      </trkpt>
      <trkpt lat="43.02284" lon="2.54864">
        <ele>209.6</ele>
        <time>2025-07-23T16:31:22Z</time>
      </trkpt>
      <trkpt lat="43.02341" lon="2.54733">
        <ele>220.2</ele>
        <time>2026-01-14T01:05:17Z</time>
      </trkpt>
      <trkpt lat="43.02382" lon="2.54655">
        <ele>221</ele>
        <time>2026-05-03T19:44:47Z</time>
      </trkpt>
      <trkpt lat="43.02653" lon="2.54593">
        <ele>204.1</ele>
        <time>2027-07-06T02:10:33Z</time>
      </trkpt>
      <trkpt lat="43.02653" lon="2.54593">
        <ele>204.1</ele>
        <time>2027-07-06T02:10:33Z</time>
      </trkpt>
      <trkpt lat="43.02689" lon="2.54632">
        <ele>198.9</ele>
        <time>2027-09-16T06:32:29Z</time>
      </trkpt>
      <trkpt lat="43.02694" lon="2.54666">
        <ele>195.7</ele>
        <time>2027-10-25T19:55:43Z</time>
      </trkpt>
      <trkpt lat="43.02679" lon="2.54689">
        <ele>197.4</ele>
        <time>2027-11-30T18:13:50Z</time>
      </trkpt>
      <trkpt lat="43.02797" lon="2.54755">
        <ele>198</ele>
        <time>2028-06-16T18:38:02Z</time>
      </trkpt>
      <trkpt lat="43.02797" lon="2.54755">
        <ele>198</ele>
        <time>2028-06-16T18:38:02Z</time>
      </trkpt>
      <trkpt lat="43.02792" lon="2.54777">
        <ele>207.1</ele>
        <time>2028-06-16T18:38:02Z</time>
      </trkpt>
      <trkpt lat="43.02653" lon="2.54726">
        <ele>208</ele>
        <time>2029-01-26T16:39:48Z</time>
      </trkpt>
      <trkpt lat="43.02609" lon="2.54751">
        <ele>211.1</ele>
        <time>2029-04-11T17:33:56Z</time>
      </trkpt>
      <trkpt lat="43.02488" lon="2.54943">
        <ele>225.1</ele>
        <time>2030-01-26T09:47:06Z</time>
      </trkpt>
      <trkpt lat="43.02499" lon="2.55025">
        <ele>229.6</ele>
        <time>2030-05-01T17:25:04Z</time>
      </trkpt>
      <trkpt lat="43.02532" lon="2.55059">
        <ele>242.1</ele>
        <time>2030-07-07T02:52:04Z</time>
      </trkpt>
      <trkpt lat="43.02532" lon="2.55059">
        <ele>242.1</ele>
        <time>2030-07-07T02:52:04Z</time>
      </trkpt>
      <trkpt lat="43.02544" lon="2.55123">
        <ele>243.9</ele>
        <time>2030-09-20T20:12:49Z</time>
      </trkpt>
      <trkpt lat="43.02523" lon="2.55135">
        <ele>243.9</ele>
        <time>2030-10-26T18:38:50Z</time>
      </trkpt>
      <trkpt lat="43.02488" lon="2.5513">
        <ele>238.1</ele>
        <time>2030-12-22T06:23:18Z</time>
      </trkpt>
      <trkpt lat="43.02261" lon="2.55559">
        <ele>255.6</ele>
        <time>2032-08-17T15:52:25Z</time>
      </trkpt>
      <trkpt lat="43.02261" lon="2.55559">
        <ele>255.6</ele>
        <time>2032-08-17T15:52:25Z</time>
      </trkpt>
      <trkpt lat="43.02189" lon="2.55661">
        <ele>259.8</ele>
        <time>2032-08-17T15:52:25Z</time>
      </trkpt>
      <trkpt lat="43.02165" lon="2.55855">
        <ele>261.8</ele>
        <time>2033-03-29T05:29:02Z</time>
      </trkpt>
      <trkpt lat="43.02207" lon="2.55881">
        <ele>272.8</ele>
        <time>2033-06-10T13:20:35Z</time>
      </trkpt>
      <trkpt lat="43.02165" lon="2.56061">
        <ele>277.6</ele>
        <time>2034-01-12T01:18:48Z</time>
      </trkpt>
      <trkpt lat="43.0212" lon="2.56035">
        <ele>271.7</ele>
        <time>2034-03-29T20:58:08Z</time>
      </trkpt>
      <trkpt lat="43.02045" lon="2.5623">
        <ele>280.9</ele>
        <time>2034-12-07T05:52:04Z</time>
      </trkpt>
      <trkpt lat="43.02045" lon="2.5623">
        <ele>280.9</ele>
        <time>2034-12-07T05:52:04Z</time>
      </trkpt>
      <trkpt lat="43.02072" lon="2.56292">
        <ele>283.8</ele>
        <time>2035-02-27T09:54:54Z</time>
      </trkpt>
      <trkpt lat="43.02041" lon="2.56373">
        <ele>284.9</ele>
        <time>2035-06-11T15:50:26Z</time>
      </trkpt>
      <trkpt lat="43.02003" lon="2.56333">
        <ele>283</ele>
        <time>2035-08-25T23:58:41Z</time>
      </trkpt>
      <trkpt lat="43.02003" lon="2.56333">
        <ele>283</ele>
        <time>2035-08-25T23:58:41Z</time>
      </trkpt>
      <trkpt lat="43.01836" lon="2.56586">
        <ele>291.2</ele>
        <time>2035-08-25T23:58:41Z</time>
      </trkpt>
      <trkpt lat="43.01805" lon="2.56696">
        <ele>304.5</ele>
        <time>2036-01-08T06:51:51Z</time>
      </trkpt>
      <trkpt lat="43.01836" lon="2.5681">
        <ele>311.9</ele>
        <time>2036-05-26T08:39:01Z</time>
      </trkpt>
      <trkpt lat="43.01794" lon="2.56825">
        <ele>311.3</ele>
        <time>2036-08-01T20:56:11Z</time>
      </trkpt>
      <trkpt lat="43.01717" lon="2.5706">
        <ele>318</ele>
        <time>2037-05-22T20:41:05Z</time>
      </trkpt>
      <trkpt lat="43.01743" lon="2.57442">
        <ele>332.2</ele>
        <time>2038-08-04T01:13:03Z</time>
      </trkpt>
      <trkpt lat="43.01743" lon="2.57442">
        <ele>332.2</ele>
        <time>2038-08-04T01:13:03Z</time>
      </trkpt>
      <trkpt lat="43.01743" lon="2.57442">
        <ele>332.2</ele>
        <time>2038-08-04T01:13:03Z</time>
      </trkpt>
      <trkpt lat="43.01683" lon="2.57669">
        <ele>321.9</ele>
        <time>2038-08-04T01:13:03Z</time>
      </trkpt>
      <trkpt lat="43.01653" lon="2.57866">
        <ele>315</ele>
        <time>2039-03-22T15:20:29Z</time>
      </trkpt>
      <trkpt lat="43.01569" lon="2.57908">
        <ele>302.3</ele>
        <time>2039-08-09T11:32:41Z</time>
      </trkpt>
      <trkpt lat="43.01396" lon="2.57787">
        <ele>293.3</ele>
        <time>2040-06-08T09:07:59Z</time>
      </trkpt>
      <trkpt lat="43.01292" lon="2.57956">
        <ele>293.9</ele>
        <time>2041-02-15T18:33:29Z</time>
      </trkpt>
      <trkpt lat="43.01267" lon="2.57978">
        <ele>294.8</ele>
        <time>2041-04-01T23:34:20Z</time>
      </trkpt>
      <trkpt lat="43.01227" lon="2.57956">
        <ele>292.4</ele>
        <time>2041-06-08T14:53:01Z</time>
      </trkpt>
      <trkpt lat="43.01235" lon="2.57851">
        <ele>292</ele>
        <time>2041-10-07T13:06:43Z</time>
      </trkpt>
      <trkpt lat="43.01235" lon="2.57851">
        <ele>292</ele>
        <time>2041-10-07T13:06:43Z</time>
      </trkpt>
      <trkpt lat="43.01174" lon="2.57802">
        <ele>306.8</ele>
        <time>2041-10-07T13:06:43Z</time>
      </trkpt>
      <trkpt lat="43.01155" lon="2.57739">
        <ele>311.3</ele>
        <time>2041-12-25T09:42:14Z</time>
      </trkpt>
      <trkpt lat="43.01203" lon="2.57631">
        <ele>311.5</ele>
        <time>2042-05-18T08:34:06Z</time>
      </trkpt>
      <trkpt lat="43.01203" lon="2.57631">
        <ele>311.5</ele>
        <time>2042-05-18T08:34:06Z</time>
      </trkpt>
      <trkpt lat="43.01229" lon="2.57302">
        <ele>317.3</ele>
        <time>2043-05-31T09:05:26Z</time>
      </trkpt>
      <trkpt lat="43.01054" lon="2.57686">
        <ele>348.8</ele>
        <time>2044-10-30T18:58:15Z</time>
      </trkpt>
      <trkpt lat="43.01022" lon="2.5744">
        <ele>360.5</ele>
        <time>2045-08-12T06:17:33Z</time>
      </trkpt>
      <trkpt lat="43.01022" lon="2.5744">
        <ele>360.5</ele>
        <time>2045-08-12T06:17:33Z</time>
      </trkpt>
      <trkpt lat="43.01062" lon="2.56456">
        <ele>410</ele>
        <time>2045-08-12T06:17:33Z</time>
      </trkpt>
      <trkpt lat="43.00868" lon="2.57502">
        <ele>428.7</ele>
        <time>2048-12-25T02:13:14Z</time>
      </trkpt>
      <trkpt lat="43.00868" lon="2.57502">
        <ele>428.7</ele>
        <time>2048-12-25T02:13:14Z</time>
      </trkpt>
      <trkpt lat="43.00868" lon="2.57502">
        <ele>428.7</ele>
        <time>2048-12-25T02:13:14Z</time>
      </trkpt>
      <trkpt lat="43.00795" lon="2.57379">
        <ele>442.1</ele>
        <time>2048-12-25T02:13:14Z</time>
      </trkpt>
      <trkpt lat="43.0063" lon="2.5742">
        <ele>454.2</ele>
        <time>2049-09-14T01:39:58Z</time>
      </trkpt>
      <trkpt lat="43.0063" lon="2.5742">
        <ele>454.2</ele>
        <time>2049-09-14T01:39:58Z</time>
      </trkpt>
      <trkpt lat="43.0063" lon="2.5742">
        <ele>454.2</ele>
        <time>2049-09-14T01:39:58Z</time>
      </trkpt>
      <trkpt lat="43.00558" lon="2.57308">
        <ele>459.7</ele>
        <time>2049-09-14T01:39:58Z</time>
      </trkpt>
      <trkpt lat="43.00518" lon="2.57314">
        <ele>458.4</ele>
        <time>2049-11-15T12:08:16Z</time>
      </trkpt>
      <trkpt lat="43.00396" lon="2.57428">
        <ele>474</ele>
        <time>2050-07-05T09:34:14Z</time>
      </trkpt>
      <trkpt lat="43.00303" lon="2.57442">
        <ele>462.7</ele>
        <time>2050-11-28T13:34:51Z</time>
      </trkpt>
      <trkpt lat="43.00317" lon="2.57378">
        <ele>470.6</ele>
        <time>2051-02-13T11:44:09Z</time>
      </trkpt>
      <trkpt lat="43.00309" lon="2.57274">
        <ele>466.8</ele>
        <time>2051-06-13T04:45:38Z</time>
      </trkpt>
      <trkpt lat="43.00314" lon="2.57178">
        <ele>459.1</ele>
        <time>2051-09-30T15:07:52Z</time>
      </trkpt>
      <trkpt lat="43.00361" lon="2.57119">
        <ele>461.4</ele>
        <time>2052-01-08T04:42:51Z</time>
      </trkpt>
      <trkpt lat="43.00378" lon="2.57066">
        <ele>459.8</ele>
        <time>2052-03-13T23:41:37Z</time>
      </trkpt>
      <trkpt lat="43.00391" lon="2.56823">
        <ele>436.4</ele>
        <time>2052-12-19T01:10:36Z</time>
      </trkpt>
      <trkpt lat="43.00391" lon="2.56823">
        <ele>436.4</ele>
        <time>2052-12-19T01:10:36Z</time>
      </trkpt>
      <trkpt lat="43.00362" lon="2.5673">
        <ele>424.7</ele>
        <time>2052-12-19T01:10:36Z</time>
      </trkpt>
      <trkpt lat="43.00329" lon="2.56778">
        <ele>426.8</ele>
        <time>2053-03-04T00:37:55Z</time>
      </trkpt>
      <trkpt lat="43.00315" lon="2.56899">
        <ele>420.2</ele>
        <time>2053-07-22T07:37:19Z</time>
      </trkpt>
      <trkpt lat="43.00315" lon="2.56899">
        <ele>420.2</ele>
        <time>2053-07-22T07:37:19Z</time>
      </trkpt>
      <trkpt lat="43.00279" lon="2.56974">
        <ele>409.2</ele>
        <time>2053-11-02T22:40:57Z</time>
      </trkpt>
      <trkpt lat="43.00249" lon="2.56879">
        <ele>383</ele>
        <time>2054-03-06T12:19:03Z</time>
      </trkpt>
      <trkpt lat="43.00216" lon="2.5676">
        <ele>369.1</ele>
        <time>2054-07-30T17:22:49Z</time>
      </trkpt>
      <trkpt lat="43.00219" lon="2.56693">
        <ele>366.7</ele>
        <time>2054-10-15T10:24:18Z</time>
      </trkpt>
      <trkpt lat="43.00213" lon="2.56607">
        <ele>375.8</ele>
        <time>2055-01-22T15:18:20Z</time>
      </trkpt>
      <trkpt lat="43.00096" lon="2.56513">
        <ele>346.7</ele>
        <time>2055-08-26T09:43:19Z</time>
      </trkpt>
      <trkpt lat="43.00035" lon="2.56306">
        <ele>342.7</ele>
        <time>2056-05-07T08:26:55Z</time>
      </trkpt>
      <trkpt lat="43.00035" lon="2.56306">
        <ele>342.7</ele>
        <time>2056-05-07T08:26:55Z</time>
      </trkpt>
      <trkpt lat="43.00021" lon="2.56226">
        <ele>341.4</ele>
        <time>2056-05-07T08:26:55Z</time>
      </trkpt>
      <trkpt lat="43.00022" lon="2.56181">
        <ele>344.2</ele>
        <time>2056-06-28T02:47:42Z</time>
      </trkpt>
      <trkpt lat="42.99999" lon="2.56148">
        <ele>357.7</ele>
        <time>2056-08-22T11:02:33Z</time>
      </trkpt>
      <trkpt lat="43.00041" lon="2.56099">
        <ele>338.3</ele>
        <time>2056-11-20T13:58:01Z</time>
      </trkpt>
      <trkpt lat="43.00006" lon="2.56021">
        <ele>366.2</ele>
        <time>2057-03-12T22:03:31Z</time>
      </trkpt>
      <trkpt lat="42.99998" lon="2.55958">
        <ele>369.6</ele>
        <time>2057-05-24T12:41:05Z</time>
      </trkpt>
      <trkpt lat="42.99998" lon="2.55958">
        <ele>369.6</ele>
        <time>2057-05-24T12:41:05Z</time>
      </trkpt>
      <trkpt lat="43.00059" lon="2.55749">
        <ele>381.5</ele>
        <time>2058-02-05T19:11:17Z</time>
      </trkpt>
      <trkpt lat="43.00073" lon="2.55726">
        <ele>378.6</ele>
        <time>2058-03-11T12:04:53Z</time>
      </trkpt>
      <trkpt lat="43.00061" lon="2.55698">
        <ele>370.9</ele>
        <time>2058-04-18T20:15:53Z</time>
      </trkpt>
      <trkpt lat="43.00034" lon="2.55665">
        <ele>355.6</ele>
        <time>2058-06-19T06:24:00Z</time>
      </trkpt>
      <trkpt lat="43.00008" lon="2.55639">
        <ele>347.8</ele>
        <time>2058-08-09T16:51:12Z</time>
      </trkpt>
      <trkpt lat="42.99962" lon="2.55599">
        <ele>345</ele>
        <time>2058-11-02T18:37:17Z</time>
      </trkpt>
      <trkpt lat="42.9995" lon="2.5556">
        <ele>333.1</ele>
        <time>2058-12-23T04:52:12Z</time>
      </trkpt>
      <trkpt lat="42.99944" lon="2.55546">
        <ele>328.8</ele>
        <time>2059-01-11T14:56:49Z</time>
      </trkpt>
      <trkpt lat="42.99908" lon="2.55534">
        <ele>319.8</ele>
        <time>2059-03-11T07:50:03Z</time>
      </trkpt>
      <trkpt lat="42.99885" lon="2.55526">
        <ele>314.7</ele>
        <time>2059-04-18T03:54:54Z</time>
      </trkpt>
      <trkpt lat="42.99849" lon="2.55541">
        <ele>312.2</ele>
        <time>2059-06-15T21:19:42Z</time>
      </trkpt>
      <trkpt lat="42.99816" lon="2.55538">
        <ele>313.2</ele>
        <time>2059-08-06T13:18:24Z</time>
      </trkpt>
      <trkpt lat="42.99816" lon="2.55538">
        <ele>313.2</ele>
        <time>2059-08-06T13:18:24Z</time>
      </trkpt>
      <trkpt lat="42.99837" lon="2.55508">
        <ele>311.6</ele>
        <time>2059-08-06T13:18:24Z</time>
      </trkpt>
      <trkpt lat="42.99874" lon="2.55495">
        <ele>312</ele>
        <time>2059-10-05T00:52:25Z</time>
      </trkpt>
      <trkpt lat="42.99908" lon="2.55493">
        <ele>313.8</ele>
        <time>2059-11-26T20:44:26Z</time>
      </trkpt>
      <trkpt lat="42.99923" lon="2.55476">
        <ele>313.7</ele>
        <time>2059-12-27T01:42:20Z</time>
      </trkpt>
      <trkpt lat="42.99948" lon="2.55456">
        <ele>312.1</ele>
        <time>2060-02-11T00:20:50Z</time>
      </trkpt>
      <trkpt lat="42.9999" lon="2.5547">
        <ele>311.6</ele>
        <time>2060-04-17T22:01:52Z</time>
      </trkpt>
      <trkpt lat="43.00037" lon="2.55414">
        <ele>307</ele>
        <time>2060-07-24T21:04:13Z</time>
      </trkpt>
      <trkpt lat="43.00062" lon="2.55339">
        <ele>297.3</ele>
        <time>2060-10-27T00:25:12Z</time>
      </trkpt>
      <trkpt lat="43.00089" lon="2.5532">
        <ele>299.5</ele>
        <time>2060-12-13T20:58:19Z</time>
      </trkpt>
      <trkpt lat="43.0012" lon="2.55321">
        <ele>306.1</ele>
        <time>2061-02-01T03:43:37Z</time>
      </trkpt>
      <trkpt lat="43.00142" lon="2.55292">
        <ele>302.3</ele>
        <time>2061-03-21T07:22:57Z</time>
      </trkpt>
      <trkpt lat="43.00171" lon="2.55272">
        <ele>297.6</ele>
        <time>2061-05-11T23:37:27Z</time>
      </trkpt>
      <trkpt lat="43.00171" lon="2.55272">
        <ele>297.6</ele>
        <time>2061-05-11T23:37:27Z</time>
      </trkpt>
      <trkpt lat="43.00208" lon="2.55261">
        <ele>298.3</ele>
        <time>2061-07-09T05:19:46Z</time>
      </trkpt>
      <trkpt lat="43.00238" lon="2.55336">
        <ele>299.4</ele>
        <time>2061-10-15T13:34:37Z</time>
      </trkpt>
      <trkpt lat="43.00289" lon="2.55385">
        <ele>298.8</ele>
        <time>2062-01-21T03:24:28Z</time>
      </trkpt>
      <trkpt lat="43.00333" lon="2.55405">
        <ele>293.6</ele>
        <time>2062-04-04T00:36:41Z</time>
      </trkpt>
      <trkpt lat="43.00364" lon="2.55399">
        <ele>287.4</ele>
        <time>2062-05-23T16:42:22Z</time>
      </trkpt>
      <trkpt lat="43.00394" lon="2.55366">
        <ele>282.5</ele>
        <time>2062-07-22T02:10:06Z</time>
      </trkpt>
      <trkpt lat="43.00407" lon="2.55358">
        <ele>281.9</ele>
        <time>2062-08-13T14:26:20Z</time>
      </trkpt>
      <trkpt lat="43.00425" lon="2.55352">
        <ele>281.5</ele>
        <time>2062-09-11T21:10:21Z</time>
      </trkpt>
      <trkpt lat="43.0046" lon="2.55425">
        <ele>297.7</ele>
        <time>2062-12-23T03:52:19Z</time>
      </trkpt>
      <trkpt lat="43.00452" lon="2.5537">
        <ele>284.1</ele>
        <time>2063-02-28T21:01:30Z</time>
      </trkpt>
      <trkpt lat="43.0049" lon="2.55301">
        <ele>267</ele>
        <time>2063-06-10T03:39:04Z</time>
      </trkpt>
      <trkpt lat="43.0049" lon="2.55301">
        <ele>267</ele>
        <time>2063-06-10T03:39:04Z</time>
      </trkpt>
      <trkpt lat="43.00475" lon="2.55279">
        <ele>267.4</ele>
        <time>2063-06-10T03:39:04Z</time>
      </trkpt>
      <trkpt lat="43.00449" lon="2.55291">
        <ele>267.3</ele>
        <time>2063-07-23T20:29:22Z</time>
      </trkpt>
      <trkpt lat="43.00416" lon="2.55324">
        <ele>273.4</ele>
        <time>2063-09-26T09:52:14Z</time>
      </trkpt>
      <trkpt lat="43.00384" lon="2.55337">
        <ele>275.4</ele>
        <time>2063-11-16T22:33:37Z</time>
      </trkpt>
      <trkpt lat="43.00356" lon="2.55334">
        <ele>275.6</ele>
        <time>2063-12-31T10:20:29Z</time>
      </trkpt>
      <trkpt lat="43.00336" lon="2.55316">
        <ele>275.3</ele>
        <time>2064-02-05T21:32:07Z</time>
      </trkpt>
      <trkpt lat="43.00326" lon="2.55289">
        <ele>275</ele>
        <time>2064-03-11T10:41:13Z</time>
      </trkpt>
      <trkpt lat="43.00345" lon="2.55251">
        <ele>279.4</ele>
        <time>2064-05-03T23:47:12Z</time>
      </trkpt>
      <trkpt lat="43.00347" lon="2.55238">
        <ele>281.6</ele>
        <time>2064-05-18T17:39:10Z</time>
      </trkpt>
      <trkpt lat="43.00362" lon="2.55225">
        <ele>281.1</ele>
        <time>2064-06-16T10:50:12Z</time>
      </trkpt>
      <trkpt lat="43.00368" lon="2.55196">
        <ele>285.5</ele>
        <time>2064-07-21T03:48:11Z</time>
      </trkpt>
      <trkpt lat="43.00382" lon="2.55159">
        <ele>288.2</ele>
        <time>2064-09-07T01:24:28Z</time>
      </trkpt>
      <trkpt lat="43.00386" lon="2.55087">
        <ele>291.4</ele>
        <time>2064-11-28T09:55:39Z</time>
      </trkpt>
      <trkpt lat="43.00384" lon="2.55059">
        <ele>293</ele>
        <time>2064-12-31T07:44:46Z</time>
      </trkpt>
      <trkpt lat="43.00374" lon="2.54949">
        <ele>310.5</ele>
        <time>2065-05-08T21:13:19Z</time>
      </trkpt>
      <trkpt lat="43.00374" lon="2.54949">
        <ele>310.5</ele>
        <time>2065-05-08T21:13:19Z</time>
      </trkpt>
      <trkpt lat="43.0043" lon="2.54962">
        <ele>299.9</ele>
        <time>2065-08-07T03:02:26Z</time>
      </trkpt>
      <trkpt lat="43.00457" lon="2.5493">
        <ele>306.3</ele>
        <time>2065-10-03T07:05:38Z</time>
      </trkpt>
      <trkpt lat="43.00478" lon="2.54879">
        <ele>308.8</ele>
        <time>2065-12-08T09:50:05Z</time>
      </trkpt>
      <trkpt lat="43.00493" lon="2.54861">
        <ele>307.9</ele>
        <time>2066-01-08T11:42:58Z</time>
      </trkpt>
      <trkpt lat="43.00521" lon="2.54828">
        <ele>309.8</ele>
        <time>2066-03-08T07:29:50Z</time>
      </trkpt>
      <trkpt lat="43.00568" lon="2.5483">
        <ele>308.5</ele>
        <time>2066-05-20T17:11:53Z</time>
      </trkpt>
      <trkpt lat="43.00614" lon="2.54787">
        <ele>315.7</ele>
        <time>2066-08-15T17:39:57Z</time>
      </trkpt>
      <trkpt lat="43.00643" lon="2.54754">
        <ele>312.2</ele>
        <time>2066-10-13T12:00:00Z</time>
      </trkpt>
      <trkpt lat="43.00646" lon="2.54726">
        <ele>310.8</ele>
        <time>2066-11-14T19:13:00Z</time>
      </trkpt>
      <trkpt lat="43.00632" lon="2.54705">
        <ele>311.4</ele>
        <time>2066-12-17T17:25:48Z</time>
      </trkpt>
      <trkpt lat="43.00632" lon="2.54705">
        <ele>311.4</ele>
        <time>2066-12-17T23:13:06Z</time>
      </trkpt>
      <trkpt lat="43.00613" lon="2.5468">
        <ele>314.2</ele>
        <time>2066-12-17T23:13:06Z</time>
      </trkpt>
      <trkpt lat="43.00606" lon="2.54635">
        <ele>313.9</ele>
        <time>2066-12-17T23:13:06Z</time>
      </trkpt>
      <trkpt lat="43.00554" lon="2.54487">
        <ele>324</ele>
        <time>2066-12-17T23:13:06Z</time>
      </trkpt>
      <trkpt lat="43.00548" lon="2.54677">
        <ele>334.4</ele>
        <time>2066-12-17T23:13:06Z</time>
      </trkpt>
      <trkpt lat="43.00376" lon="2.54727">
        <ele>353.6</ele>
        <time>2066-12-17T23:13:06Z</time>
      </trkpt>
      <trkpt lat="43.00376" lon="2.54727">
        <ele>353.6</ele>
        <time>2066-12-17T23:13:06Z</time>
      </trkpt>
      <trkpt lat="43.00214" lon="2.54671">
        <ele>365.4</ele>
        <time>2066-12-17T23:13:06Z</time>
      </trkpt>
      <trkpt lat="43.00214" lon="2.54671">
        <ele>365.4</ele>
        <time>2066-12-17T23:13:06Z</time>
      </trkpt>
      <trkpt lat="43.00141" lon="2.54722">
        <ele>376.8</ele>
        <time>2066-12-17T23:13:06Z</time>
      </trkpt>
      <trkpt lat="43.00034" lon="2.54922">
        <ele>376.6</ele>
        <time>2066-12-17T23:13:06Z</time>
      </trkpt>
      <trkpt lat="42.99993" lon="2.54823">
        <ele>406.8</ele>
        <time>2066-12-17T23:13:06Z</time>
      </trkpt>
      <trkpt lat="42.99947" lon="2.54894">
        <ele>386.4</ele>
        <time>2066-12-17T23:13:06Z</time>
      </trkpt>
      <trkpt lat="42.99919" lon="2.54868">
        <ele>387.6</ele>
      </trkpt>
      <trkpt lat="42.99915" lon="2.54765">
        <ele>413.8</ele>
        <time>2066-12-17T23:13:06Z</time>
      </trkpt>
      <trkpt lat="42.99869" lon="2.54748">
        <ele>403.3</ele>
        <time>2066-12-17T23:13:06Z</time>
      </trkpt>
      <trkpt lat="42.99851" lon="2.54692">
        <ele>410.8</ele>
        <time>2066-12-17T23:13:06Z</time>
      </trkpt>
      <trkpt lat="42.99824" lon="2.54693">
        <ele>400.6</ele>
        <time>2066-12-17T23:13:06Z</time>
      </trkpt>
      <trkpt lat="42.99805" lon="2.54568">
        <ele>419.3</ele>
        <time>2066-12-17T23:13:06Z</time>
      </trkpt>
      <trkpt lat="42.99777" lon="2.54534">
        <ele>418.5</ele>
        <time>2066-12-17T23:13:06Z</time>
      </trkpt>
      <trkpt lat="42.99709" lon="2.54567">
        <ele>412.1</ele>
        <time>2066-12-17T23:13:06Z</time>
      </trkpt>
      <trkpt lat="42.99709" lon="2.54567">
        <ele>412.1</ele>
        <time>2066-12-17T23:13:06Z</time>
      </trkpt>
      <trkpt lat="42.99709" lon="2.54567">
        <ele>412.1</ele>
        <time>2066-12-17T23:13:06Z</time>
      </trkpt>
      <trkpt lat="42.99743" lon="2.54516">
        <ele>419</ele>
        <time>2066-12-17T23:13:06Z</time>
      </trkpt>
      <trkpt lat="42.99763" lon="2.54496">
        <ele>426.7</ele>
        <time>2066-12-17T23:13:06Z</time>
      </trkpt>
      <trkpt lat="42.9978" lon="2.54486">
        <ele>434.1</ele>
        <time>2066-12-17T23:13:06Z</time>
      </trkpt>
      <trkpt lat="42.99864" lon="2.54609">
        <ele>440.2</ele>
        <time>2066-12-17T23:13:06Z</time>
      </trkpt>
      <trkpt lat="42.99949" lon="2.54641">
        <ele>457.3</ele>
        <time>2066-12-17T23:13:06Z</time>
      </trkpt>
      <trkpt lat="42.99982" lon="2.54592">
        <ele>460.1</ele>
        <time>2066-12-17T23:13:06Z</time>
      </trkpt>
      <trkpt lat="42.99971" lon="2.54487">
        <ele>468.5</ele>
        <time>2066-12-17T23:13:06Z</time>
      </trkpt>
      <trkpt lat="42.99938" lon="2.54446">
        <ele>471.5</ele>
        <time>2066-12-17T23:13:06Z</time>
      </trkpt>
      <trkpt lat="42.9992" lon="2.54357">
        <ele>479.1</ele>
        <time>2066-12-17T23:13:06Z</time>
      </trkpt>
      <trkpt lat="42.99928" lon="2.54337">
        <ele>479.5</ele>
        <time>2066-12-17T23:13:06Z</time>
      </trkpt>
      <trkpt lat="42.99829" lon="2.54194">
        <ele>469</ele>
        <time>2066-12-17T23:13:06Z</time>
      </trkpt>
      <trkpt lat="42.99834" lon="2.54145">
        <ele>470.9</ele>
        <time>2066-12-17T23:13:06Z</time>
      </trkpt>
      <trkpt lat="42.99848" lon="2.5412">
        <ele>472.2</ele>
        <time>2066-12-17T23:13:06Z</time>
      </trkpt>
      <trkpt lat="43.0001" lon="2.54049">
        <ele>466.7</ele>
        <time>2066-12-17T23:13:06Z</time>
      </trkpt>
      <trkpt lat="43.0001" lon="2.54049">
        <ele>466.7</ele>
        <time>2066-12-17T23:13:06Z</time>
      </trkpt>
      <trkpt lat="43.0001" lon="2.54049">
        <ele>466.7</ele>
        <time>2066-12-17T23:13:06Z</time>
      </trkpt>
      <trkpt lat="43.00011" lon="2.54034">
        <ele>466.9</ele>
        <time>2066-12-17T23:13:06Z</time>
      </trkpt>
      <trkpt lat="42.99855" lon="2.53983">
        <ele>478</ele>
        <time>2066-12-17T23:13:06Z</time>
      </trkpt>
      <trkpt lat="42.99699" lon="2.53878">
        <ele>490.7</ele>
        <time>2066-12-17T23:13:06Z</time>
      </trkpt>
      <trkpt lat="42.99601" lon="2.53745">
        <ele>506.1</ele>
        <time>2066-12-17T23:13:06Z</time>
      </trkpt>
      <trkpt lat="42.9951" lon="2.53595">
        <ele>524.2</ele>
        <time>2066-12-17T23:13:06Z</time>
      </trkpt>
      <trkpt lat="42.99481" lon="2.5356">
        <ele>528.7</ele>
        <time>2066-12-17T23:13:06Z</time>
      </trkpt>
      <trkpt lat="42.99442" lon="2.53338">
        <ele>566.5</ele>
        <time>2066-12-17T23:13:06Z</time>
      </trkpt>
      <trkpt lat="42.99442" lon="2.53338">
        <ele>566.5</ele>
        <time>2066-12-17T23:13:06Z</time>
      </trkpt>
      <trkpt lat="42.99437" lon="2.53274">
        <ele>574.1</ele>
        <time>2066-12-17T23:13:06Z</time>
      </trkpt>
      <trkpt lat="42.99386" lon="2.53274">
        <ele>583.5</ele>
        <time>2066-12-17T23:13:06Z</time>
      </trkpt>
      <trkpt lat="42.99386" lon="2.53274">
        <ele>583.5</ele>
        <time>2066-12-17T23:13:06Z</time>
      </trkpt>
      <trkpt lat="42.99295" lon="2.53237">
        <ele>594.7</ele>
        <time>2066-12-17T23:13:06Z</time>
      </trkpt>
      <trkpt lat="42.9921" lon="2.53267">
        <ele>606.6</ele>
        <time>2066-12-17T23:13:06Z</time>
      </trkpt>
      <trkpt lat="42.99037" lon="2.53404">
        <ele>635.7</ele>
        <time>2066-12-17T23:13:06Z</time>
      </trkpt>
      <trkpt lat="42.9896" lon="2.53488">
        <ele>652.6</ele>
        <time>2066-12-17T23:13:06Z</time>
      </trkpt>
      <trkpt lat="42.989" lon="2.53512">
        <ele>655.8</ele>
        <time>2066-12-17T23:13:06Z</time>
      </trkpt>
      <trkpt lat="42.98671" lon="2.53412">
        <ele>665.6</ele>
        <time>2066-12-17T23:13:06Z</time>
      </trkpt>
      <trkpt lat="42.98671" lon="2.53412">
        <ele>665.6</ele>
        <time>2066-12-17T23:13:06Z</time>
      </trkpt>
      <trkpt lat="42.98602" lon="2.53347">
        <ele>663.7</ele>
        <time>2066-12-17T23:13:06Z</time>
      </trkpt>
      <trkpt lat="42.98472" lon="2.53213">
        <ele>665.6</ele>
        <time>2066-12-17T23:13:06Z</time>
      </trkpt>
      <trkpt lat="42.98472" lon="2.53213">
        <ele>665.6</ele>
        <time>2066-12-17T23:13:06Z</time>
      </trkpt>
      <trkpt lat="42.98397" lon="2.53032">
        <ele>668.3</ele>
        <time>2066-12-17T23:13:06Z</time>
      </trkpt>
      <trkpt lat="42.98399" lon="2.52959">
        <ele>669.1</ele>
        <time>2066-12-17T23:13:06Z</time>
      </trkpt>
      <trkpt lat="42.98311" lon="2.52796">
        <ele>677.9</ele>
        <time>2066-12-17T23:13:06Z</time>
      </trkpt>
      <trkpt lat="42.98273" lon="2.52694">
        <ele>672.6</ele>
        <time>2066-12-17T23:13:06Z</time>
      </trkpt>
      <trkpt lat="42.98079" lon="2.52548">
        <ele>666.9</ele>
        <time>2066-12-17T23:13:06Z</time>
      </trkpt>
      <trkpt lat="42.98079" lon="2.52548">
        <ele>666.9</ele>
        <time>2066-12-17T23:13:06Z</time>
      </trkpt>
      <trkpt lat="42.97973" lon="2.52417">
        <ele>662.6</ele>
        <time>2066-12-17T23:13:06Z</time>
      </trkpt>
      <trkpt lat="42.97945" lon="2.52313">
        <ele>652.6</ele>
        <time>2066-12-17T23:13:06Z</time>
      </trkpt>
      <trkpt lat="42.979" lon="2.52182">
        <ele>658.8</ele>
        <time>2066-12-17T23:13:06Z</time>
      </trkpt>
      <trkpt lat="42.979" lon="2.52182">
        <ele>658.8</ele>
        <time>2066-12-17T23:13:06Z</time>
      </trkpt>
      <trkpt lat="42.9776" lon="2.52135">
        <ele>644.3</ele>
        <time>2066-12-17T23:13:06Z</time>
      </trkpt>
      <trkpt lat="42.977" lon="2.52152">
        <ele>640.5</ele>
        <time>2066-12-17T23:13:06Z</time>
      </trkpt>
      <trkpt lat="42.97651" lon="2.52138">
        <ele>631.7</ele>
        <time>2066-12-17T23:13:06Z</time>
      </trkpt>
      <trkpt lat="42.97547" lon="2.52161">
        <ele>619.5</ele>
        <time>2066-12-17T23:13:06Z</time>
      </trkpt>
      <trkpt lat="42.97247" lon="2.52014">
        <ele>603.6</ele>
        <time>2066-12-17T23:13:06Z</time>
      </trkpt>
      <trkpt lat="42.97247" lon="2.52014">
        <ele>603.6</ele>
        <time>2066-12-17T23:13:06Z</time>
      </trkpt>
      <trkpt lat="42.97221" lon="2.52081">
        <ele>602.8</ele>
        <time>2066-12-17T23:13:06Z</time>
      </trkpt>
      <trkpt lat="42.97202" lon="2.52239">
        <ele>594.8</ele>
        <time>2066-12-17T23:13:06Z</time>
      </trkpt>
      <trkpt lat="42.97225" lon="2.52343">
        <ele>587.4</ele>
        <time>2066-12-17T23:13:06Z</time>
      </trkpt>
      <trkpt lat="42.97225" lon="2.52343">
        <ele>587.4</ele>
        <time>2066-12-17T23:13:06Z</time>
      </trkpt>
      <trkpt lat="42.97376" lon="2.52394">
        <ele>586.9</ele>
        <time>2066-12-17T23:13:06Z</time>
      </trkpt>
      <trkpt lat="42.97296" lon="2.52495">
        <ele>574.8</ele>
        <time>2066-12-17T23:13:06Z</time>
      </trkpt>
      <trkpt lat="42.97143" lon="2.52555">
        <ele>568.2</ele>
        <time>2066-12-17T23:13:06Z</time>
      </trkpt>
      <trkpt lat="42.97015" lon="2.52805">
        <ele>556.5</ele>
        <time>2066-12-17T23:13:06Z</time>
      </trkpt>
      <trkpt lat="42.97015" lon="2.52805">
        <ele>556.5</ele>
        <time>2066-12-17T23:13:06Z</time>
      </trkpt>
      <trkpt lat="42.96893" lon="2.52925">
        <ele>544.3</ele>
        <time>2066-12-17T23:13:06Z</time>
      </trkpt>
      <trkpt lat="42.96466" lon="2.52954">
        <ele>537.1</ele>
        <time>2066-12-17T23:13:06Z</time>
      </trkpt>
      <trkpt lat="42.96466" lon="2.52954">
        <ele>537.1</ele>
        <time>2066-12-17T23:13:06Z</time>
      </trkpt>
      <trkpt lat="42.96288" lon="2.5292">
        <ele>547.6</ele>
        <time>2066-12-17T23:13:06Z</time>
      </trkpt>
      <trkpt lat="42.96288" lon="2.5292">
        <ele>547.6</ele>
        <time>2066-12-17T23:13:06Z</time>
      </trkpt>
      <trkpt lat="42.96218" lon="2.52925">
        <ele>541.7</ele>
        <time>2066-12-17T23:13:06Z</time>
      </trkpt>
      <trkpt lat="42.96155" lon="2.52879">
        <ele>542</ele>
        <time>2066-12-17T23:13:06Z</time>
      </trkpt>
      <trkpt lat="42.96107" lon="2.52777">
        <ele>541.1</ele>
        <time>2066-12-17T23:13:06Z</time>
      </trkpt>
      <trkpt lat="42.96079" lon="2.5272">
        <ele>542.3</ele>
        <time>2066-12-17T23:13:06Z</time>
      </trkpt>
      <trkpt lat="42.96124" lon="2.52523">
        <ele>542.6</ele>
        <time>2066-12-17T23:13:06Z</time>
      </trkpt>
      <trkpt lat="42.96058" lon="2.52375">
        <ele>542.5</ele>
        <time>2066-12-17T23:13:06Z</time>
      </trkpt>
      <trkpt lat="42.96058" lon="2.52243">
        <ele>540.8</ele>
        <time>2066-12-17T23:13:06Z</time>
      </trkpt>
      <trkpt lat="42.96058" lon="2.52243">
        <ele>540.8</ele>
        <time>2066-12-17T23:13:06Z</time>
      </trkpt>
      <trkpt lat="42.96041" lon="2.52144">
        <ele>538.3</ele>
        <time>2066-12-17T23:13:06Z</time>
      </trkpt>
      <trkpt lat="42.96057" lon="2.51662">
        <ele>527.9</ele>
        <time>2066-12-17T23:13:06Z</time>
      </trkpt>
      <trkpt lat="42.96057" lon="2.51662">
        <ele>527.9</ele>
        <time>2066-12-17T23:13:06Z</time>
      </trkpt>
      <trkpt lat="42.96084" lon="2.51598">
        <ele>529.4</ele>
        <time>2066-12-17T23:13:06Z</time>
      </trkpt>
      <trkpt lat="42.96117" lon="2.51213">
        <ele>522.8</ele>
        <time>2066-12-17T23:13:06Z</time>
      </trkpt>
      <trkpt lat="42.96199" lon="2.50998">
        <ele>504.6</ele>
        <time>2066-12-17T23:13:06Z</time>
      </trkpt>
      <trkpt lat="42.96199" lon="2.50998">
        <ele>504.6</ele>
        <time>2066-12-17T23:13:06Z</time>
      </trkpt>
      <trkpt lat="42.96205" lon="2.50857">
        <ele>501.7</ele>
        <time>2066-12-17T23:13:06Z</time>
      </trkpt>
      <trkpt lat="42.96205" lon="2.50533">
        <ele>494.4</ele>
        <time>2066-12-17T23:13:06Z</time>
      </trkpt>
      <trkpt lat="42.96205" lon="2.50533">
        <ele>494.4</ele>
        <time>2066-12-17T23:13:06Z</time>
      </trkpt>
      <trkpt lat="42.96134" lon="2.50297">
        <ele>482.2</ele>
        <time>2066-12-17T23:13:06Z</time>
      </trkpt>
      <trkpt lat="42.96162" lon="2.50067">
        <ele>467</ele>
        <time>2066-12-17T23:13:06Z</time>
      </trkpt>
      <trkpt lat="42.9618" lon="2.49982">
        <ele>442.3</ele>
        <time>2066-12-17T23:13:06Z</time>
      </trkpt>
      <trkpt lat="42.96091" lon="2.49886">
        <ele>442.7</ele>
        <time>2066-12-17T23:13:06Z</time>
      </trkpt>
      <trkpt lat="42.9622" lon="2.49928">
        <ele>417.5</ele>
        <time>2066-12-17T23:13:06Z</time>
      </trkpt>
      <trkpt lat="42.96292" lon="2.5005">
        <ele>422.3</ele>
        <time>2066-12-17T23:13:06Z</time>
      </trkpt>
      <trkpt lat="42.96292" lon="2.5005">
        <ele>422.3</ele>
        <time>2066-12-17T23:13:06Z</time>
      </trkpt>
      <trkpt lat="42.96292" lon="2.5005">
        <ele>422.3</ele>
        <time>2066-12-17T23:13:06Z</time>
      </trkpt>
      <trkpt lat="42.96377" lon="2.49963">
        <ele>391.5</ele>
        <time>2066-12-17T23:13:06Z</time>
      </trkpt>
      <trkpt lat="42.96406" lon="2.49963">
        <ele>388.8</ele>
      </trkpt>
      <trkpt lat="42.96454" lon="2.49952">
        <ele>384.3</ele>
        <time>2066-12-17T23:13:06Z</time>
      </trkpt>
      <trkpt lat="42.96459" lon="2.499">
        <ele>370.1</ele>
        <time>2066-12-17T23:13:06Z</time>
      </trkpt>
      <trkpt lat="42.96439" lon="2.49879">
        <ele>364.8</ele>
        <time>2066-12-17T23:13:06Z</time>
      </trkpt>
      <trkpt lat="42.96366" lon="2.4991">
        <ele>376.4</ele>
        <time>2066-12-17T23:13:06Z</time>
      </trkpt>
      <trkpt lat="42.96497" lon="2.49798">
        <ele>350.3</ele>
        <time>2066-12-17T23:13:06Z</time>
      </trkpt>
      <trkpt lat="42.964" lon="2.49644">
        <ele>359.3</ele>
        <time>2066-12-17T23:13:06Z</time>
      </trkpt>
      <trkpt lat="42.96328" lon="2.49526">
        <ele>349.3</ele>
        <time>2066-12-17T23:13:06Z</time>
      </trkpt>
      <trkpt lat="42.9635" lon="2.49448">
        <ele>339.9</ele>
        <time>2066-12-17T23:13:06Z</time>
      </trkpt>
      <trkpt lat="42.96372" lon="2.49402">
        <ele>338</ele>
        <time>2066-12-17T23:13:06Z</time>
      </trkpt>
      <trkpt lat="42.96382" lon="2.49378">
        <ele>339.2</ele>
        <time>2066-12-17T23:13:06Z</time>
      </trkpt>
      <trkpt lat="42.96382" lon="2.49378">
        <ele>339.2</ele>
        <time>2066-12-17T23:13:06Z</time>
      </trkpt>
      <trkpt lat="42.96362" lon="2.49359">
        <ele>339.3</ele>
        <time>2066-12-17T23:13:06Z</time>
      </trkpt>
      <trkpt lat="42.96349" lon="2.49358">
        <ele>339.6</ele>
        <time>2066-12-17T23:13:06Z</time>
      </trkpt>
      <trkpt lat="42.9634" lon="2.49329">
        <ele>341.2</ele>
        <time>2066-12-17T23:13:06Z</time>
      </trkpt>
      <trkpt lat="42.96326" lon="2.49325">
        <ele>342.3</ele>
        <time>2066-12-17T23:13:06Z</time>
      </trkpt>
      <trkpt lat="42.96326" lon="2.49325">
        <ele>342.3</ele>
        <time>2066-12-17T23:13:06Z</time>
      </trkpt>
      <trkpt lat="42.96307" lon="2.49336">
        <ele>344.4</ele>
        <time>2066-12-17T23:13:06Z</time>
      </trkpt>
      <trkpt lat="42.96283" lon="2.49338">
        <ele>346.9</ele>
        <time>2066-12-17T23:13:06Z</time>
      </trkpt>
      <trkpt lat="42.96258" lon="2.49296">
        <ele>353.1</ele>
        <time>2066-12-17T23:13:06Z</time>
      </trkpt>
      <trkpt lat="42.96049" lon="2.4914">
        <ele>366.5</ele>
        <time>2066-12-17T23:13:06Z</time>
      </trkpt>
      <trkpt lat="42.9608" lon="2.48893">
        <ele>406.6</ele>
        <time>2066-12-17T23:13:06Z</time>
      </trkpt>
      <trkpt lat="42.96063" lon="2.48883">
        <ele>415</ele>
        <time>2066-12-17T23:13:06Z</time>
      </trkpt>
      <trkpt lat="42.96044" lon="2.48892">
        <ele>421.5</ele>
        <time>2066-12-17T23:13:06Z</time>
      </trkpt>
      <trkpt lat="42.96028" lon="2.48907">
        <ele>425</ele>
        <time>2066-12-17T23:13:06Z</time>
      </trkpt>
      <trkpt lat="42.96005" lon="2.48954">
        <ele>419.8</ele>
        <time>2066-12-17T23:13:06Z</time>
      </trkpt>
      <trkpt lat="42.95984" lon="2.48988">
        <ele>417</ele>
        <time>2066-12-17T23:13:06Z</time>
      </trkpt>
      <trkpt lat="42.95776" lon="2.4905">
        <ele>427.4</ele>
        <time>2066-12-17T23:13:06Z</time>
      </trkpt>
      <trkpt lat="42.95776" lon="2.4905">
        <ele>427.4</ele>
        <time>2066-12-17T23:13:06Z</time>
      </trkpt>
      <trkpt lat="42.95731" lon="2.48955">
        <ele>428.1</ele>
        <time>2066-12-17T23:13:06Z</time>
      </trkpt>
      <trkpt lat="42.95739" lon="2.48879">
        <ele>432.6</ele>
        <time>2066-12-17T23:13:06Z</time>
      </trkpt>
      <trkpt lat="42.95739" lon="2.48879">
        <ele>432.6</ele>
        <time>2066-12-17T23:13:06Z</time>
      </trkpt>
      <trkpt lat="42.95742" lon="2.48783">
        <ele>430.9</ele>
        <time>2066-12-17T23:13:06Z</time>
      </trkpt>
      <trkpt lat="42.9584" lon="2.48705">
        <ele>439.1</ele>
        <time>2066-12-17T23:13:06Z</time>
      </trkpt>
      <trkpt lat="42.95899" lon="2.48609">
        <ele>450.3</ele>
        <time>2066-12-17T23:13:06Z</time>
      </trkpt>
      <trkpt lat="42.959" lon="2.48573">
        <ele>454.2</ele>
        <time>2066-12-17T23:13:06Z</time>
      </trkpt>
      <trkpt lat="42.95856" lon="2.48519">
        <ele>452.4</ele>
        <time>2066-12-17T23:13:06Z</time>
      </trkpt>
      <trkpt lat="42.95918" lon="2.48352">
        <ele>459</ele>
        <time>2066-12-17T23:13:06Z</time>
      </trkpt>
      <trkpt lat="42.95995" lon="2.47901">
        <ele>488.1</ele>
        <time>2066-12-17T23:13:06Z</time>
      </trkpt>
      <trkpt lat="42.95995" lon="2.47901">
        <ele>488.1</ele>
        <time>2066-12-17T23:13:06Z</time>
      </trkpt>
      <trkpt lat="42.95982" lon="2.47795">
        <ele>489.3</ele>
        <time>2066-12-17T23:13:06Z</time>
      </trkpt>
      <trkpt lat="42.96075" lon="2.47614">
        <ele>503</ele>
        <time>2066-12-17T23:13:06Z</time>
      </trkpt>
      <trkpt lat="42.96075" lon="2.47614">
        <ele>503</ele>
        <time>2066-12-17T23:13:06Z</time>
      </trkpt>
      <trkpt lat="42.96185" lon="2.47541">
        <ele>503.4</ele>
        <time>2066-12-17T23:13:06Z</time>
      </trkpt>
      <trkpt lat="42.96239" lon="2.47519">
        <ele>510</ele>
        <time>2066-12-17T23:13:06Z</time>
      </trkpt>
      <trkpt lat="42.96315" lon="2.47451">
        <ele>515.1</ele>
        <time>2066-12-17T23:13:06Z</time>
      </trkpt>
      <trkpt lat="42.96421" lon="2.47454">
        <ele>529.8</ele>
        <time>2066-12-17T23:13:06Z</time>
      </trkpt>
      <trkpt lat="42.96514" lon="2.47358">
        <ele>546.6</ele>
        <time>2066-12-17T23:13:06Z</time>
      </trkpt>
      <trkpt lat="42.96634" lon="2.47102">
        <ele>569.2</ele>
        <time>2066-12-17T23:13:06Z</time>
      </trkpt>
      <trkpt lat="42.96634" lon="2.47102">
        <ele>569.2</ele>
        <time>2066-12-17T23:13:06Z</time>
      </trkpt>
      <trkpt lat="42.96687" lon="2.4696">
        <ele>579.6</ele>
        <time>2066-12-17T23:13:06Z</time>
      </trkpt>
      <trkpt lat="42.96729" lon="2.46776">
        <ele>595.8</ele>
        <time>2066-12-17T23:13:06Z</time>
      </trkpt>
      <trkpt lat="42.96729" lon="2.46776">
        <ele>595.8</ele>
        <time>2066-12-17T23:13:06Z</time>
      </trkpt>
      <trkpt lat="42.96887" lon="2.4671">
        <ele>642.2</ele>
        <time>2066-12-17T23:13:06Z</time>
      </trkpt>
      <trkpt lat="42.97029" lon="2.46688">
        <ele>644.1</ele>
        <time>2066-12-17T23:13:06Z</time>
      </trkpt>
      <trkpt lat="42.97031" lon="2.46655">
        <ele>644.6</ele>
        <time>2066-12-17T23:13:06Z</time>
      </trkpt>
      <trkpt lat="42.96946" lon="2.46458">
        <ele>660.7</ele>
        <time>2066-12-17T23:13:06Z</time>
      </trkpt>
      <trkpt lat="42.96946" lon="2.46458">
        <ele>660.7</ele>
        <time>2066-12-17T23:13:06Z</time>
      </trkpt>
      <trkpt lat="42.97117" lon="2.46126">
        <ele>676.8</ele>
        <time>2066-12-17T23:13:06Z</time>
      </trkpt>
      <trkpt lat="42.97112" lon="2.4601">
        <ele>698.2</ele>
        <time>2066-12-17T23:13:06Z</time>
      </trkpt>
      <trkpt lat="42.97117" lon="2.45977">
        <ele>703.2</ele>
        <time>2066-12-17T23:13:06Z</time>
      </trkpt>
      <trkpt lat="42.97296" lon="2.45882">
        <ele>702.2</ele>
        <time>2066-12-17T23:13:06Z</time>
      </trkpt>
      <trkpt lat="42.97449" lon="2.45713">
        <ele>693</ele>
        <time>2066-12-17T23:13:06Z</time>
      </trkpt>
      <trkpt lat="42.97449" lon="2.45713">
        <ele>693</ele>
        <time>2066-12-17T23:13:06Z</time>
      </trkpt>
      <trkpt lat="42.97619" lon="2.45628">
        <ele>691</ele>
        <time>2066-12-17T23:13:06Z</time>
      </trkpt>
      <trkpt lat="42.97619" lon="2.45628">
        <ele>691</ele>
        <time>2066-12-17T23:13:06Z</time>
      </trkpt>
      <trkpt lat="42.9793" lon="2.45394">
        <ele>688.7</ele>
        <time>2066-12-17T23:13:06Z</time>
      </trkpt>
      <trkpt lat="42.9804" lon="2.45232">
        <ele>667.8</ele>
        <time>2066-12-17T23:13:06Z</time>
      </trkpt>
      <trkpt lat="42.98163" lon="2.45177">
        <ele>653.8</ele>
        <time>2066-12-17T23:13:06Z</time>
      </trkpt>
      <trkpt lat="42.98185" lon="2.45149">
        <ele>649.9</ele>
        <time>2066-12-17T23:13:06Z</time>
      </trkpt>
      <trkpt lat="42.98237" lon="2.45091">
        <ele>638.1</ele>
        <time>2066-12-17T23:13:06Z</time>
      </trkpt>
      <trkpt lat="42.98338" lon="2.45061">
        <ele>635.8</ele>
        <time>2066-12-17T23:13:06Z</time>
      </trkpt>
      <trkpt lat="42.98338" lon="2.45061">
        <ele>635.8</ele>
        <time>2066-12-17T23:13:06Z</time>
      </trkpt>
      <trkpt lat="42.98365" lon="2.45033">
        <ele>639.3</ele>
        <time>2066-12-17T23:13:06Z</time>
      </trkpt>
      <trkpt lat="42.98354" lon="2.44985">
        <ele>642.7</ele>
        <time>2066-12-17T23:13:06Z</time>
      </trkpt>
      <trkpt lat="42.98354" lon="2.44985">
        <ele>642.7</ele>
        <time>2066-12-17T23:13:06Z</time>
      </trkpt>
      <trkpt lat="42.98352" lon="2.44919">
        <ele>649.3</ele>
        <time>2066-12-17T23:13:06Z</time>
      </trkpt>
      <trkpt lat="42.98341" lon="2.44871">
        <ele>652.8</ele>
        <time>2066-12-17T23:13:06Z</time>
      </trkpt>
      <trkpt lat="42.98322" lon="2.44818">
        <ele>654.6</ele>
        <time>2066-12-17T23:13:06Z</time>
      </trkpt>
      <trkpt lat="42.9829" lon="2.44777">
        <ele>660.2</ele>
        <time>2066-12-17T23:13:06Z</time>
      </trkpt>
      <trkpt lat="42.98249" lon="2.44751">
        <ele>667.4</ele>
        <time>2066-12-17T23:13:06Z</time>
      </trkpt>
      <trkpt lat="42.98196" lon="2.44732">
        <ele>682.6</ele>
        <time>2066-12-17T23:13:06Z</time>
      </trkpt>
      <trkpt lat="42.98147" lon="2.44689">
        <ele>694.6</ele>
        <time>2066-12-17T23:13:06Z</time>
      </trkpt>
      <trkpt lat="42.98048" lon="2.44493">
        <ele>711.7</ele>
        <time>2066-12-17T23:13:06Z</time>
      </trkpt>
      <trkpt lat="42.97958" lon="2.44459">
        <ele>707.9</ele>
        <time>2066-12-17T23:13:06Z</time>
      </trkpt>
      <trkpt lat="42.97959" lon="2.44429">
        <ele>706</ele>
        <time>2066-12-17T23:13:06Z</time>
      </trkpt>
      <trkpt lat="42.97976" lon="2.44403">
        <ele>706.9</ele>
        <time>2066-12-17T23:13:06Z</time>
      </trkpt>
      <trkpt lat="42.97986" lon="2.44356">
        <ele>708.1</ele>
        <time>2066-12-17T23:13:06Z</time>
      </trkpt>
      <trkpt lat="42.98088" lon="2.44145">
        <ele>715.2</ele>
        <time>2066-12-17T23:13:06Z</time>
      </trkpt>
      <trkpt lat="42.98088" lon="2.44145">
        <ele>715.2</ele>
        <time>2066-12-17T23:13:06Z</time>
      </trkpt>
      <trkpt lat="42.98214" lon="2.44068">
        <ele>731.9</ele>
        <time>2066-12-17T23:13:06Z</time>
      </trkpt>
      <trkpt lat="42.98506" lon="2.43668">
        <ele>703.2</ele>
        <time>2066-12-17T23:13:06Z</time>
      </trkpt>
      <trkpt lat="42.98506" lon="2.43668">
        <ele>703.2</ele>
        <time>2066-12-17T23:13:06Z</time>
      </trkpt>
      <trkpt lat="42.98488" lon="2.43355">
        <ele>676</ele>
        <time>2066-12-17T23:13:06Z</time>
      </trkpt>
      <trkpt lat="42.9864" lon="2.4327">
        <ele>686</ele>
        <time>2066-12-17T23:13:06Z</time>
      </trkpt>
      <trkpt lat="42.98612" lon="2.42929">
        <ele>704.1</ele>
        <time>2066-12-17T23:13:06Z</time>
      </trkpt>
      <trkpt lat="42.98612" lon="2.42929">
        <ele>704.1</ele>
        <time>2066-12-17T23:13:06Z</time>
      </trkpt>
      <trkpt lat="42.98527" lon="2.42846">
        <ele>690.8</ele>
        <time>2066-12-17T23:13:06Z</time>
      </trkpt>
      <trkpt lat="42.98552" lon="2.42354">
        <ele>670.5</ele>
        <time>2066-12-17T23:13:06Z</time>
      </trkpt>
      <trkpt lat="42.98585" lon="2.42057">
        <ele>688.9</ele>
        <time>2066-12-17T23:13:06Z</time>
      </trkpt>
      <trkpt lat="42.98506" lon="2.41842">
        <ele>720.4</ele>
        <time>2066-12-17T23:13:06Z</time>
      </trkpt>
      <trkpt lat="42.98506" lon="2.41842">
        <ele>720.4</ele>
        <time>2066-12-17T23:13:06Z</time>
      </trkpt>
      <trkpt lat="42.98305" lon="2.41965">
        <ele>697.4</ele>
        <time>2066-12-17T23:13:06Z</time>
      </trkpt>
      <trkpt lat="42.9824" lon="2.41779">
        <ele>686.9</ele>
        <time>2066-12-17T23:13:06Z</time>
      </trkpt>
      <trkpt lat="42.98331" lon="2.41482">
        <ele>713.3</ele>
        <time>2066-12-17T23:13:06Z</time>
      </trkpt>
      <trkpt lat="42.98164" lon="2.41336">
        <ele>710.7</ele>
        <time>2066-12-17T23:13:06Z</time>
      </trkpt>
      <trkpt lat="42.98164" lon="2.41336">
        <ele>710.7</ele>
        <time>2066-12-17T23:13:06Z</time>
      </trkpt>
      <trkpt lat="42.9779" lon="2.40395">
        <ele>693.7</ele>
        <time>2066-12-17T23:13:06Z</time>
      </trkpt>
      <trkpt lat="42.97667" lon="2.40717">
        <ele>676</ele>
        <time>2066-12-17T23:13:06Z</time>
      </trkpt>
      <trkpt lat="42.97667" lon="2.40717">
        <ele>676</ele>
        <time>2066-12-17T23:13:06Z</time>
      </trkpt>
      <trkpt lat="42.97535" lon="2.40417">
        <ele>667.8</ele>
        <time>2066-12-17T23:13:06Z</time>
      </trkpt>
      <trkpt lat="42.97466" lon="2.40452">
        <ele>660.1</ele>
        <time>2066-12-17T23:13:06Z</time>
      </trkpt>
      <trkpt lat="42.97436" lon="2.40461">
        <ele>657.5</ele>
        <time>2066-12-17T23:13:06Z</time>
      </trkpt>
      <trkpt lat="42.97327" lon="2.40727">
        <ele>646.8</ele>
        <time>2066-12-17T23:13:06Z</time>
      </trkpt>
    </trkseg>
  </trk>
</gpx>